<?xml version="1.0" encoding="utf-8"?>
<gpx xmlns:xsi="http://www.w3.org/2001/XMLSchema-instance" xmlns:xsd="http://www.w3.org/2001/XMLSchema" version="1.1" creator="Shapelink.com" xmlns="http://www.topografix.com/GPX/1/1" xmlns:gpxtpx="http://www.garmin.com/xmlschemas/TrackPointExtension/v1">
  <metadata>
    <name>Cykling - Trainer 8.26 km, 2026-05-04</name>
    <desc></desc>
    <author><name>Håkan Andersson</name></author> 
    <time>2026-05-04T13:23:00Z</time>
  </metadata>
  <trk>
    <name>Cykling - Trainer 8.26 km, 2026-05-04</name>
    <trkseg>
      <trkpt lat="55.641892909729" lon="-5.239563660007">
        <ele>53.8</ele>
        <time>2026-05-04T13:23:00Z</time>
      </trkpt>
      <trkpt lat="55.641904812027" lon="-5.239555194288">
        <ele>53.8</ele>
        <time>2026-05-04T13:23:01Z</time>
      </trkpt>
      <trkpt lat="55.641921575827" lon="-5.239546477112">
        <ele>53.8</ele>
        <time>2026-05-04T13:23:02Z</time>
      </trkpt>
      <trkpt lat="55.641942865853" lon="-5.239539687773">
        <ele>53.8</ele>
        <time>2026-05-04T13:23:03Z</time>
      </trkpt>
      <trkpt lat="55.641967927734" lon="-5.239534993909">
        <ele>53.8</ele>
        <time>2026-05-04T13:23:04Z</time>
      </trkpt>
      <trkpt lat="55.641996174737" lon="-5.239531473511">
        <ele>53.8</ele>
        <time>2026-05-04T13:23:05Z</time>
      </trkpt>
      <trkpt lat="55.642026265758" lon="-5.239528791303">
        <ele>53.8</ele>
        <time>2026-05-04T13:23:06Z</time>
      </trkpt>
      <trkpt lat="55.642058200797" lon="-5.239526947285">
        <ele>53.8</ele>
        <time>2026-05-04T13:23:07Z</time>
      </trkpt>
      <trkpt lat="55.642091728397" lon="-5.239526192914">
        <ele>53.8</ele>
        <time>2026-05-04T13:23:08Z</time>
      </trkpt>
      <trkpt lat="55.642126848558" lon="-5.239526779647">
        <ele>53.8</ele>
        <time>2026-05-04T13:23:09Z</time>
      </trkpt>
      <trkpt lat="55.642163309823" lon="-5.239528288389">
        <ele>53.8</ele>
        <time>2026-05-04T13:23:10Z</time>
      </trkpt>
      <trkpt lat="55.642201196011" lon="-5.239530132407">
        <ele>53.8</ele>
        <time>2026-05-04T13:23:11Z</time>
      </trkpt>
      <trkpt lat="55.642240255665" lon="-5.239532060244">
        <ele>53.8</ele>
        <time>2026-05-04T13:23:12Z</time>
      </trkpt>
      <trkpt lat="55.642278812405" lon="-5.239533904262">
        <ele>53.8</ele>
        <time>2026-05-04T13:23:13Z</time>
      </trkpt>
      <trkpt lat="55.642321811552" lon="-5.239534826271">
        <ele>53.8</ele>
        <time>2026-05-04T13:23:14Z</time>
      </trkpt>
      <trkpt lat="55.642364307785" lon="-5.239534658633">
        <ele>53.8</ele>
        <time>2026-05-04T13:23:15Z</time>
      </trkpt>
      <trkpt lat="55.642407809846" lon="-5.239533904262">
        <ele>53.8</ele>
        <time>2026-05-04T13:23:16Z</time>
      </trkpt>
      <trkpt lat="55.642451982459" lon="-5.239532814615">
        <ele>53.8</ele>
        <time>2026-05-04T13:23:17Z</time>
      </trkpt>
      <trkpt lat="55.642497077081" lon="-5.239531724968">
        <ele>53.8</ele>
        <time>2026-05-04T13:23:18Z</time>
      </trkpt>
      <trkpt lat="55.642542926074" lon="-5.239530635321">
        <ele>53.8</ele>
        <time>2026-05-04T13:23:19Z</time>
      </trkpt>
      <trkpt lat="55.642589445619" lon="-5.239529545674">
        <ele>53.8</ele>
        <time>2026-05-04T13:23:20Z</time>
      </trkpt>
      <trkpt lat="55.642636635716" lon="-5.239528958941">
        <ele>53.8</ele>
        <time>2026-05-04T13:23:21Z</time>
      </trkpt>
      <trkpt lat="55.642684664003" lon="-5.239528539846">
        <ele>53.8</ele>
        <time>2026-05-04T13:23:22Z</time>
      </trkpt>
      <trkpt lat="55.64273353048" lon="-5.239529126579">
        <ele>53.8</ele>
        <time>2026-05-04T13:23:23Z</time>
      </trkpt>
      <trkpt lat="55.642783067509" lon="-5.239530048588">
        <ele>53.8</ele>
        <time>2026-05-04T13:23:24Z</time>
      </trkpt>
      <trkpt lat="55.642833191271" lon="-5.239531138235">
        <ele>53.8</ele>
        <time>2026-05-04T13:23:25Z</time>
      </trkpt>
      <trkpt lat="55.642883734128" lon="-5.239532814615">
        <ele>53.8</ele>
        <time>2026-05-04T13:23:26Z</time>
      </trkpt>
      <trkpt lat="55.642934947537" lon="-5.239533736624">
        <ele>53.8</ele>
        <time>2026-05-04T13:23:27Z</time>
      </trkpt>
      <trkpt lat="55.642986831498" lon="-5.239533736624">
        <ele>53.8</ele>
        <time>2026-05-04T13:23:28Z</time>
      </trkpt>
      <trkpt lat="55.643039637468" lon="-5.239529713312">
        <ele>53.8</ele>
        <time>2026-05-04T13:23:29Z</time>
      </trkpt>
      <trkpt lat="55.643093281628" lon="-5.239523678344">
        <ele>53.8</ele>
        <time>2026-05-04T13:23:30Z</time>
      </trkpt>
      <trkpt lat="55.643148266892" lon="-5.239517727195">
        <ele>53.8</ele>
        <time>2026-05-04T13:23:31Z</time>
      </trkpt>
      <trkpt lat="55.643204425622" lon="-5.239514206797">
        <ele>53.8</ele>
        <time>2026-05-04T13:23:32Z</time>
      </trkpt>
      <trkpt lat="55.643261422542" lon="-5.239514458254">
        <ele>53.8</ele>
        <time>2026-05-04T13:23:33Z</time>
      </trkpt>
      <trkpt lat="55.643319006195" lon="-5.239519571213">
        <ele>53.8</ele>
        <time>2026-05-04T13:23:34Z</time>
      </trkpt>
      <trkpt lat="55.643377092762" lon="-5.239532144063">
        <ele>53.8</ele>
        <time>2026-05-04T13:23:35Z</time>
      </trkpt>
      <trkpt lat="55.643435179329" lon="-5.239556032478">
        <ele>53.6</ele>
        <time>2026-05-04T13:23:36Z</time>
      </trkpt>
      <trkpt lat="55.643491505697" lon="-5.239595846503">
        <ele>53.6</ele>
        <time>2026-05-04T13:23:37Z</time>
      </trkpt>
      <trkpt lat="55.643543138201" lon="-5.239655357993">
        <ele>53.6</ele>
        <time>2026-05-04T13:23:38Z</time>
      </trkpt>
      <trkpt lat="55.643586556443" lon="-5.239734315491">
        <ele>53.6</ele>
        <time>2026-05-04T13:23:39Z</time>
      </trkpt>
      <trkpt lat="55.643621006052" lon="-5.239827019305">
        <ele>53.6</ele>
        <time>2026-05-04T13:23:40Z</time>
      </trkpt>
      <trkpt lat="55.643647073761" lon="-5.239929865218">
        <ele>53.4</ele>
        <time>2026-05-04T13:23:41Z</time>
      </trkpt>
      <trkpt lat="55.64366643595" lon="-5.240040171022">
        <ele>53.2</ele>
        <time>2026-05-04T13:23:42Z</time>
      </trkpt>
      <trkpt lat="55.643682613017" lon="-5.240150895921">
        <ele>53</ele>
        <time>2026-05-04T13:23:43Z</time>
      </trkpt>
      <trkpt lat="55.643703483948" lon="-5.240273774575">
        <ele>52.8</ele>
        <time>2026-05-04T13:23:44Z</time>
      </trkpt>
      <trkpt lat="55.643735251349" lon="-5.240388522786">
        <ele>52.6</ele>
        <time>2026-05-04T13:23:45Z</time>
      </trkpt>
      <trkpt lat="55.643778585772" lon="-5.240496062563">
        <ele>52.2</ele>
        <time>2026-05-04T13:23:46Z</time>
      </trkpt>
      <trkpt lat="55.643831140285" lon="-5.240594885164">
        <ele>52</ele>
        <time>2026-05-04T13:23:47Z</time>
      </trkpt>
      <trkpt lat="55.643890735594" lon="-5.240684990589">
        <ele>51.8</ele>
        <time>2026-05-04T13:23:48Z</time>
      </trkpt>
      <trkpt lat="55.643955443862" lon="-5.240767384666">
        <ele>51.6</ele>
        <time>2026-05-04T13:23:49Z</time>
      </trkpt>
      <trkpt lat="55.644023672528" lon="-5.240843827594">
        <ele>51.4</ele>
        <time>2026-05-04T13:23:50Z</time>
      </trkpt>
      <trkpt lat="55.644094583402" lon="-5.240915157563">
        <ele>51.2</ele>
        <time>2026-05-04T13:23:51Z</time>
      </trkpt>
      <trkpt lat="55.644167338294" lon="-5.240981877487">
        <ele>51.2</ele>
        <time>2026-05-04T13:23:52Z</time>
      </trkpt>
      <trkpt lat="55.64423891972" lon="-5.24105371037">
        <ele>51</ele>
        <time>2026-05-04T13:23:53Z</time>
      </trkpt>
      <trkpt lat="55.644310668784" lon="-5.241128057823">
        <ele>51</ele>
        <time>2026-05-04T13:23:54Z</time>
      </trkpt>
      <trkpt lat="55.644383675133" lon="-5.241204919846">
        <ele>50.8</ele>
        <time>2026-05-04T13:23:55Z</time>
      </trkpt>
      <trkpt lat="55.644458106405" lon="-5.241283877344">
        <ele>50.6</ele>
        <time>2026-05-04T13:23:56Z</time>
      </trkpt>
      <trkpt lat="55.644533794962" lon="-5.241363924489">
        <ele>50.4</ele>
        <time>2026-05-04T13:23:57Z</time>
      </trkpt>
      <trkpt lat="55.644610824623" lon="-5.241442714349">
        <ele>50.2</ele>
        <time>2026-05-04T13:23:58Z</time>
      </trkpt>
      <trkpt lat="55.644688524836" lon="-5.241521001295">
        <ele>50.2</ele>
        <time>2026-05-04T13:23:59Z</time>
      </trkpt>
      <trkpt lat="55.644766392687" lon="-5.241599539698">
        <ele>50</ele>
        <time>2026-05-04T13:24:00Z</time>
      </trkpt>
      <trkpt lat="55.644843925262" lon="-5.241679503024">
        <ele>49.8</ele>
        <time>2026-05-04T13:24:01Z</time>
      </trkpt>
      <trkpt lat="55.644921122561" lon="-5.24176114273">
        <ele>49.6</ele>
        <time>2026-05-04T13:24:02Z</time>
      </trkpt>
      <trkpt lat="55.644998655136" lon="-5.241842195703">
        <ele>49.4</ele>
        <time>2026-05-04T13:24:03Z</time>
      </trkpt>
      <trkpt lat="55.645077696453" lon="-5.241918890088">
        <ele>49.2</ele>
        <time>2026-05-04T13:24:04Z</time>
      </trkpt>
      <trkpt lat="55.645157240684" lon="-5.24199415955">
        <ele>49.2</ele>
        <time>2026-05-04T13:24:05Z</time>
      </trkpt>
      <trkpt lat="55.645235276173" lon="-5.242075128704">
        <ele>48.8</ele>
        <time>2026-05-04T13:24:06Z</time>
      </trkpt>
      <trkpt lat="55.645313144024" lon="-5.242159031523">
        <ele>48.6</ele>
        <time>2026-05-04T13:24:07Z</time>
      </trkpt>
      <trkpt lat="55.645391766246" lon="-5.242243856351">
        <ele>48.4</ele>
        <time>2026-05-04T13:24:08Z</time>
      </trkpt>
      <trkpt lat="55.645471226658" lon="-5.242329603188">
        <ele>48.2</ele>
        <time>2026-05-04T13:24:09Z</time>
      </trkpt>
      <trkpt lat="55.645551776717" lon="-5.242416439672">
        <ele>47.8</ele>
        <time>2026-05-04T13:24:10Z</time>
      </trkpt>
      <trkpt lat="55.645633751699" lon="-5.242504449622">
        <ele>47.6</ele>
        <time>2026-05-04T13:24:11Z</time>
      </trkpt>
      <trkpt lat="55.645716397233" lon="-5.242594471228">
        <ele>47.2</ele>
        <time>2026-05-04T13:24:12Z</time>
      </trkpt>
      <trkpt lat="55.645797617844" lon="-5.24269153363">
        <ele>47</ele>
        <time>2026-05-04T13:24:13Z</time>
      </trkpt>
      <trkpt lat="55.645876826799" lon="-5.242795385371">
        <ele>46.8</ele>
        <time>2026-05-04T13:24:14Z</time>
      </trkpt>
      <trkpt lat="55.645954778469" lon="-5.242902841329">
        <ele>46.4</ele>
        <time>2026-05-04T13:24:15Z</time>
      </trkpt>
      <trkpt lat="55.646030886121" lon="-5.243014991151">
        <ele>46.2</ele>
        <time>2026-05-04T13:24:16Z</time>
      </trkpt>
      <trkpt lat="55.646104898298" lon="-5.243131164285">
        <ele>46</ele>
        <time>2026-05-04T13:24:17Z</time>
      </trkpt>
      <trkpt lat="55.646177569371" lon="-5.243249600532">
        <ele>45.8</ele>
        <time>2026-05-04T13:24:18Z</time>
      </trkpt>
      <trkpt lat="55.646248983159" lon="-5.243369461702">
        <ele>45.8</ele>
        <time>2026-05-04T13:24:19Z</time>
      </trkpt>
      <trkpt lat="55.646318552929" lon="-5.243491669804">
        <ele>45.6</ele>
        <time>2026-05-04T13:24:20Z</time>
      </trkpt>
      <trkpt lat="55.646385859586" lon="-5.243616308657">
        <ele>45.4</ele>
        <time>2026-05-04T13:24:21Z</time>
      </trkpt>
      <trkpt lat="55.646452160415" lon="-5.243741031329">
        <ele>45.4</ele>
        <time>2026-05-04T13:24:22Z</time>
      </trkpt>
      <trkpt lat="55.646517874511" lon="-5.243864915811">
        <ele>45.2</ele>
        <time>2026-05-04T13:24:23Z</time>
      </trkpt>
      <trkpt lat="55.646584259159" lon="-5.243985866628">
        <ele>45.2</ele>
        <time>2026-05-04T13:24:24Z</time>
      </trkpt>
      <trkpt lat="55.646652320187" lon="-5.244101872124">
        <ele>45</ele>
        <time>2026-05-04T13:24:25Z</time>
      </trkpt>
      <trkpt lat="55.646721889957" lon="-5.244213099937">
        <ele>45</ele>
        <time>2026-05-04T13:24:26Z</time>
      </trkpt>
      <trkpt lat="55.64679372284" lon="-5.24431762223">
        <ele>45</ele>
        <time>2026-05-04T13:24:27Z</time>
      </trkpt>
      <trkpt lat="55.646868824664" lon="-5.2444123377">
        <ele>44.8</ele>
        <time>2026-05-04T13:24:28Z</time>
      </trkpt>
      <trkpt lat="55.646948033619" lon="-5.244493809768">
        <ele>44.8</ele>
        <time>2026-05-04T13:24:29Z</time>
      </trkpt>
      <trkpt lat="55.647031517343" lon="-5.244558601855">
        <ele>44.6</ele>
        <time>2026-05-04T13:24:30Z</time>
      </trkpt>
      <trkpt lat="55.647118772922" lon="-5.244603193563">
        <ele>44.4</ele>
        <time>2026-05-04T13:24:31Z</time>
      </trkpt>
      <trkpt lat="55.647208794528" lon="-5.244624818865">
        <ele>44.4</ele>
        <time>2026-05-04T13:24:32Z</time>
      </trkpt>
      <trkpt lat="55.647299821962" lon="-5.24462272339">
        <ele>44.2</ele>
        <time>2026-05-04T13:24:33Z</time>
      </trkpt>
      <trkpt lat="55.647390597939" lon="-5.244601684821">
        <ele>44</ele>
        <time>2026-05-04T13:24:34Z</time>
      </trkpt>
      <trkpt lat="55.647480451907" lon="-5.244566816117">
        <ele>43.8</ele>
        <time>2026-05-04T13:24:35Z</time>
      </trkpt>
      <trkpt lat="55.647568545676" lon="-5.244516943812">
        <ele>43.6</ele>
        <time>2026-05-04T13:24:36Z</time>
      </trkpt>
      <trkpt lat="55.647653202866" lon="-5.244449804793">
        <ele>43.4</ele>
        <time>2026-05-04T13:24:37Z</time>
      </trkpt>
      <trkpt lat="55.647732663278" lon="-5.244364309413">
        <ele>43.2</ele>
        <time>2026-05-04T13:24:38Z</time>
      </trkpt>
      <trkpt lat="55.64780541817" lon="-5.244261379681">
        <ele>43</ele>
        <time>2026-05-04T13:24:39Z</time>
      </trkpt>
      <trkpt lat="55.647870461714" lon="-5.244143194891">
        <ele>42.8</ele>
        <time>2026-05-04T13:24:40Z</time>
      </trkpt>
      <trkpt lat="55.647928045367" lon="-5.24401335926">
        <ele>42.8</ele>
        <time>2026-05-04T13:24:41Z</time>
      </trkpt>
      <trkpt lat="55.647979342595" lon="-5.2438758961">
        <ele>42.6</ele>
        <time>2026-05-04T13:24:42Z</time>
      </trkpt>
      <trkpt lat="55.648026784149" lon="-5.243734325809">
        <ele>42.4</ele>
        <time>2026-05-04T13:24:43Z</time>
      </trkpt>
      <trkpt lat="55.648072716961" lon="-5.243591162957">
        <ele>42.2</ele>
        <time>2026-05-04T13:24:44Z</time>
      </trkpt>
      <trkpt lat="55.648118817411" lon="-5.243448335381">
        <ele>42</ele>
        <time>2026-05-04T13:24:45Z</time>
      </trkpt>
      <trkpt lat="55.648170198458" lon="-5.243310536945">
        <ele>41.8</ele>
        <time>2026-05-04T13:24:46Z</time>
      </trkpt>
      <trkpt lat="55.648228871758" lon="-5.243180952771">
        <ele>41.6</ele>
        <time>2026-05-04T13:24:47Z</time>
      </trkpt>
      <trkpt lat="55.64829408294" lon="-5.24305949904">
        <ele>41.4</ele>
        <time>2026-05-04T13:24:48Z</time>
      </trkpt>
      <trkpt lat="55.648365580547" lon="-5.242946594847">
        <ele>41</ele>
        <time>2026-05-04T13:24:49Z</time>
      </trkpt>
      <trkpt lat="55.648443448398" lon="-5.242843665115">
        <ele>40.6</ele>
        <time>2026-05-04T13:24:50Z</time>
      </trkpt>
      <trkpt lat="55.648528021769" lon="-5.242753308233">
        <ele>40.2</ele>
        <time>2026-05-04T13:24:51Z</time>
      </trkpt>
      <trkpt lat="55.648615612624" lon="-5.242681391531">
        <ele>39.8</ele>
        <time>2026-05-04T13:24:52Z</time>
      </trkpt>
      <trkpt lat="55.648717201252" lon="-5.242623807878">
        <ele>39.2</ele>
        <time>2026-05-04T13:24:53Z</time>
      </trkpt>
      <trkpt lat="55.648820382441" lon="-5.242592962486">
        <ele>38.8</ele>
        <time>2026-05-04T13:24:54Z</time>
      </trkpt>
      <trkpt lat="55.648927000209" lon="-5.242586927518">
        <ele>38.2</ele>
        <time>2026-05-04T13:24:55Z</time>
      </trkpt>
      <trkpt lat="55.649035461995" lon="-5.242601092929">
        <ele>37.6</ele>
        <time>2026-05-04T13:24:56Z</time>
      </trkpt>
      <trkpt lat="55.649145181066" lon="-5.242630094303">
        <ele>37</ele>
        <time>2026-05-04T13:24:57Z</time>
      </trkpt>
      <trkpt lat="55.649256157422" lon="-5.242669321595">
        <ele>36.4</ele>
        <time>2026-05-04T13:24:58Z</time>
      </trkpt>
      <trkpt lat="55.649368558701" lon="-5.242713829484">
        <ele>35.8</ele>
        <time>2026-05-04T13:24:59Z</time>
      </trkpt>
      <trkpt lat="55.649482803998" lon="-5.242759510839">
        <ele>35.2</ele>
        <time>2026-05-04T13:25:00Z</time>
      </trkpt>
      <trkpt lat="55.649599312408" lon="-5.242800665968">
        <ele>34.6</ele>
        <time>2026-05-04T13:25:01Z</time>
      </trkpt>
      <trkpt lat="55.64971900594" lon="-5.242823800012">
        <ele>34</ele>
        <time>2026-05-04T13:25:02Z</time>
      </trkpt>
      <trkpt lat="55.649840627309" lon="-5.242821285442">
        <ele>33.6</ele>
        <time>2026-05-04T13:25:03Z</time>
      </trkpt>
      <trkpt lat="55.649961494307" lon="-5.242784321263">
        <ele>33</ele>
        <time>2026-05-04T13:25:04Z</time>
      </trkpt>
      <trkpt lat="55.650076829251" lon="-5.242708045973">
        <ele>32.8</ele>
        <time>2026-05-04T13:25:05Z</time>
      </trkpt>
      <trkpt lat="55.650184620485" lon="-5.242602434033">
        <ele>32.4</ele>
        <time>2026-05-04T13:25:06Z</time>
      </trkpt>
      <trkpt lat="55.650282688715" lon="-5.242471005841">
        <ele>32.2</ele>
        <time>2026-05-04T13:25:07Z</time>
      </trkpt>
      <trkpt lat="55.650366172439" lon="-5.242311498284">
        <ele>31.8</ele>
        <time>2026-05-04T13:25:08Z</time>
      </trkpt>
      <trkpt lat="55.650436077485" lon="-5.242135143108">
        <ele>31.6</ele>
        <time>2026-05-04T13:25:09Z</time>
      </trkpt>
      <trkpt lat="55.650492320034" lon="-5.241947723824">
        <ele>31.4</ele>
        <time>2026-05-04T13:25:10Z</time>
      </trkpt>
      <trkpt lat="55.650534480991" lon="-5.241752677011">
        <ele>31.4</ele>
        <time>2026-05-04T13:25:11Z</time>
      </trkpt>
      <trkpt lat="55.650567421858" lon="-5.241555618542">
        <ele>31.2</ele>
        <time>2026-05-04T13:25:12Z</time>
      </trkpt>
      <trkpt lat="55.650594327757" lon="-5.241367277249">
        <ele>31</ele>
        <time>2026-05-04T13:25:13Z</time>
      </trkpt>
      <trkpt lat="55.650622155665" lon="-5.241165944011">
        <ele>31</ele>
        <time>2026-05-04T13:25:14Z</time>
      </trkpt>
      <trkpt lat="55.650651240858" lon="-5.240976513071">
        <ele>30.8</ele>
        <time>2026-05-04T13:25:15Z</time>
      </trkpt>
      <trkpt lat="55.650689462322" lon="-5.240794458203">
        <ele>30.6</ele>
        <time>2026-05-04T13:25:16Z</time>
      </trkpt>
      <trkpt lat="55.650738580256" lon="-5.240622461615">
        <ele>30.2</ele>
        <time>2026-05-04T13:25:17Z</time>
      </trkpt>
      <trkpt lat="55.650799935764" lon="-5.240463959886">
        <ele>30</ele>
        <time>2026-05-04T13:25:18Z</time>
      </trkpt>
      <trkpt lat="55.650868918801" lon="-5.240315432618">
        <ele>29.6</ele>
        <time>2026-05-04T13:25:19Z</time>
      </trkpt>
      <trkpt lat="55.650941757512" lon="-5.240171850671">
        <ele>29.2</ele>
        <time>2026-05-04T13:25:20Z</time>
      </trkpt>
      <trkpt lat="55.651017613707" lon="-5.240031789122">
        <ele>28.8</ele>
        <time>2026-05-04T13:25:21Z</time>
      </trkpt>
      <trkpt lat="55.651096235929" lon="-5.239894577419">
        <ele>28.2</ele>
        <time>2026-05-04T13:25:22Z</time>
      </trkpt>
      <trkpt lat="55.651177037445" lon="-5.239758790639">
        <ele>27.8</ele>
        <time>2026-05-04T13:25:23Z</time>
      </trkpt>
      <trkpt lat="55.651259096246" lon="-5.239623003859">
        <ele>27.2</ele>
        <time>2026-05-04T13:25:24Z</time>
      </trkpt>
      <trkpt lat="55.651342160875" lon="-5.239486546527">
        <ele>26.8</ele>
        <time>2026-05-04T13:25:25Z</time>
      </trkpt>
      <trkpt lat="55.651425896056" lon="-5.239348999548">
        <ele>26.2</ele>
        <time>2026-05-04T13:25:26Z</time>
      </trkpt>
      <trkpt lat="55.651508960685" lon="-5.239207932171">
        <ele>25.8</ele>
        <time>2026-05-04T13:25:27Z</time>
      </trkpt>
      <trkpt lat="55.651589175468" lon="-5.239060578369">
        <ele>25.2</ele>
        <time>2026-05-04T13:25:28Z</time>
      </trkpt>
      <trkpt lat="55.651666456586" lon="-5.238907441056">
        <ele>24.8</ele>
        <time>2026-05-04T13:25:29Z</time>
      </trkpt>
      <trkpt lat="55.65173988203" lon="-5.238748101137">
        <ele>24.4</ele>
        <time>2026-05-04T13:25:30Z</time>
      </trkpt>
      <trkpt lat="55.651808362153" lon="-5.238583061526">
        <ele>24</ele>
        <time>2026-05-04T13:25:31Z</time>
      </trkpt>
      <trkpt lat="55.65187231605" lon="-5.23841341187">
        <ele>23.8</ele>
        <time>2026-05-04T13:25:32Z</time>
      </trkpt>
      <trkpt lat="55.651930905531" lon="-5.238239319807">
        <ele>23.6</ele>
        <time>2026-05-04T13:25:33Z</time>
      </trkpt>
      <trkpt lat="55.651982370397" lon="-5.238060701518">
        <ele>23.4</ele>
        <time>2026-05-04T13:25:34Z</time>
      </trkpt>
      <trkpt lat="55.652025285725" lon="-5.237878227555">
        <ele>23.2</ele>
        <time>2026-05-04T13:25:35Z</time>
      </trkpt>
      <trkpt lat="55.652057891316" lon="-5.237693155203">
        <ele>23.4</ele>
        <time>2026-05-04T13:25:36Z</time>
      </trkpt>
      <trkpt lat="55.652078678428" lon="-5.237507915213">
        <ele>23.4</ele>
        <time>2026-05-04T13:25:37Z</time>
      </trkpt>
      <trkpt lat="55.652087982337" lon="-5.237325944164">
        <ele>23.8</ele>
        <time>2026-05-04T13:25:38Z</time>
      </trkpt>
      <trkpt lat="55.652083875206" lon="-5.237150762454">
        <ele>24</ele>
        <time>2026-05-04T13:25:39Z</time>
      </trkpt>
      <trkpt lat="55.652068955424" lon="-5.236985555205">
        <ele>24.6</ele>
        <time>2026-05-04T13:25:40Z</time>
      </trkpt>
      <trkpt lat="55.65204665957" lon="-5.23683174734">
        <ele>25</ele>
        <time>2026-05-04T13:25:41Z</time>
      </trkpt>
      <trkpt lat="55.652016568549" lon="-5.236691518153">
        <ele>25.6</ele>
        <time>2026-05-04T13:25:42Z</time>
      </trkpt>
      <trkpt lat="55.651984717329" lon="-5.236562353074">
        <ele>26</ele>
        <time>2026-05-04T13:25:43Z</time>
      </trkpt>
      <trkpt lat="55.651954626308" lon="-5.236442324266">
        <ele>26.6</ele>
        <time>2026-05-04T13:25:44Z</time>
      </trkpt>
      <trkpt lat="55.651926966038" lon="-5.236331934643">
        <ele>27</ele>
        <time>2026-05-04T13:25:45Z</time>
      </trkpt>
      <trkpt lat="55.651901568881" lon="-5.236230178377">
        <ele>27.6</ele>
        <time>2026-05-04T13:25:46Z</time>
      </trkpt>
      <trkpt lat="55.651878267199" lon="-5.236136468735">
        <ele>28</ele>
        <time>2026-05-04T13:25:47Z</time>
      </trkpt>
      <trkpt lat="55.651857731544" lon="-5.23604971607">
        <ele>28.4</ele>
        <time>2026-05-04T13:25:48Z</time>
      </trkpt>
      <trkpt lat="55.651840381011" lon="-5.23597008802">
        <ele>28.8</ele>
        <time>2026-05-04T13:25:49Z</time>
      </trkpt>
      <trkpt lat="55.651825712686" lon="-5.235897752223">
        <ele>29.2</ele>
        <time>2026-05-04T13:25:50Z</time>
      </trkpt>
      <trkpt lat="55.651813056017" lon="-5.235832373403">
        <ele>29.6</ele>
        <time>2026-05-04T13:25:51Z</time>
      </trkpt>
      <trkpt lat="55.651802075728" lon="-5.235773867741">
        <ele>29.8</ele>
        <time>2026-05-04T13:25:52Z</time>
      </trkpt>
      <trkpt lat="55.651792436543" lon="-5.235721899961">
        <ele>30.2</ele>
        <time>2026-05-04T13:25:53Z</time>
      </trkpt>
      <trkpt lat="55.651783970824" lon="-5.235675631873">
        <ele>30.4</ele>
        <time>2026-05-04T13:25:54Z</time>
      </trkpt>
      <trkpt lat="55.651776259476" lon="-5.235633806192">
        <ele>30.6</ele>
        <time>2026-05-04T13:25:55Z</time>
      </trkpt>
      <trkpt lat="55.651769386318" lon="-5.235596339099">
        <ele>30.8</ele>
        <time>2026-05-04T13:25:56Z</time>
      </trkpt>
      <trkpt lat="55.651762932255" lon="-5.235562392404">
        <ele>31</ele>
        <time>2026-05-04T13:25:57Z</time>
      </trkpt>
      <trkpt lat="55.651756562011" lon="-5.23553171465">
        <ele>31.2</ele>
        <time>2026-05-04T13:25:58Z</time>
      </trkpt>
      <trkpt lat="55.651750275586" lon="-5.23550321619">
        <ele>31.4</ele>
        <time>2026-05-04T13:25:59Z</time>
      </trkpt>
      <trkpt lat="55.651743821523" lon="-5.235476561748">
        <ele>31.6</ele>
        <time>2026-05-04T13:26:00Z</time>
      </trkpt>
      <trkpt lat="55.651737283641" lon="-5.235450913134">
        <ele>31.6</ele>
        <time>2026-05-04T13:26:01Z</time>
      </trkpt>
      <trkpt lat="55.651730578121" lon="-5.235425851253">
        <ele>31.8</ele>
        <time>2026-05-04T13:26:02Z</time>
      </trkpt>
      <trkpt lat="55.651723621144" lon="-5.235401124648">
        <ele>32</ele>
        <time>2026-05-04T13:26:03Z</time>
      </trkpt>
      <trkpt lat="55.65171641271" lon="-5.235376900957">
        <ele>32.2</ele>
        <time>2026-05-04T13:26:04Z</time>
      </trkpt>
      <trkpt lat="55.651709120457" lon="-5.23535318018">
        <ele>32.2</ele>
        <time>2026-05-04T13:26:05Z</time>
      </trkpt>
      <trkpt lat="55.651701660566" lon="-5.235330046136">
        <ele>32.4</ele>
        <time>2026-05-04T13:26:06Z</time>
      </trkpt>
      <trkpt lat="55.651694116856" lon="-5.235307582644">
        <ele>32.6</ele>
        <time>2026-05-04T13:26:07Z</time>
      </trkpt>
      <trkpt lat="55.651685986413" lon="-5.235284700057">
        <ele>32.8</ele>
        <time>2026-05-04T13:26:08Z</time>
      </trkpt>
      <trkpt lat="55.651677520694" lon="-5.23526181747">
        <ele>32.8</ele>
        <time>2026-05-04T13:26:09Z</time>
      </trkpt>
      <trkpt lat="55.651668719699" lon="-5.235239437797">
        <ele>33</ele>
        <time>2026-05-04T13:26:10Z</time>
      </trkpt>
      <trkpt lat="55.651659751066" lon="-5.235217644857">
        <ele>33.2</ele>
        <time>2026-05-04T13:26:11Z</time>
      </trkpt>
      <trkpt lat="55.651650363338" lon="-5.235196271012">
        <ele>33.4</ele>
        <time>2026-05-04T13:26:12Z</time>
      </trkpt>
      <trkpt lat="55.651640640334" lon="-5.235175232443">
        <ele>33.4</ele>
        <time>2026-05-04T13:26:13Z</time>
      </trkpt>
      <trkpt lat="55.651630749692" lon="-5.235154780607">
        <ele>33.6</ele>
        <time>2026-05-04T13:26:14Z</time>
      </trkpt>
      <trkpt lat="55.65162085905" lon="-5.235135502237">
        <ele>33.8</ele>
        <time>2026-05-04T13:26:15Z</time>
      </trkpt>
      <trkpt lat="55.651610968408" lon="-5.235117145876">
        <ele>33.8</ele>
        <time>2026-05-04T13:26:16Z</time>
      </trkpt>
      <trkpt lat="55.651600910128" lon="-5.235099460067">
        <ele>34</ele>
        <time>2026-05-04T13:26:17Z</time>
      </trkpt>
      <trkpt lat="55.651590265115" lon="-5.235081690439">
        <ele>34.2</ele>
        <time>2026-05-04T13:26:18Z</time>
      </trkpt>
      <trkpt lat="55.651579033369" lon="-5.23506400463">
        <ele>34.2</ele>
        <time>2026-05-04T13:26:19Z</time>
      </trkpt>
      <trkpt lat="55.651566963433" lon="-5.235046318821">
        <ele>34.4</ele>
        <time>2026-05-04T13:26:20Z</time>
      </trkpt>
      <trkpt lat="55.651554390583" lon="-5.235029135926">
        <ele>34.6</ele>
        <time>2026-05-04T13:26:21Z</time>
      </trkpt>
      <trkpt lat="55.651541482457" lon="-5.235012623583">
        <ele>34.8</ele>
        <time>2026-05-04T13:26:22Z</time>
      </trkpt>
      <trkpt lat="55.651528155236" lon="-5.234996446516">
        <ele>34.8</ele>
        <time>2026-05-04T13:26:23Z</time>
      </trkpt>
      <trkpt lat="55.651514241282" lon="-5.234980688544">
        <ele>35</ele>
        <time>2026-05-04T13:26:24Z</time>
      </trkpt>
      <trkpt lat="55.651499572957" lon="-5.234965768762">
        <ele>35.2</ele>
        <time>2026-05-04T13:26:25Z</time>
      </trkpt>
      <trkpt lat="55.65148423408" lon="-5.234952106265">
        <ele>35.2</ele>
        <time>2026-05-04T13:26:26Z</time>
      </trkpt>
      <trkpt lat="55.651467721737" lon="-5.234939784872">
        <ele>35.4</ele>
        <time>2026-05-04T13:26:27Z</time>
      </trkpt>
      <trkpt lat="55.65144986829" lon="-5.23492905604">
        <ele>35.4</ele>
        <time>2026-05-04T13:26:28Z</time>
      </trkpt>
      <trkpt lat="55.65143058992" lon="-5.234920087407">
        <ele>35.6</ele>
        <time>2026-05-04T13:26:29Z</time>
      </trkpt>
      <trkpt lat="55.651410808636" lon="-5.234912878973">
        <ele>35.6</ele>
        <time>2026-05-04T13:26:30Z</time>
      </trkpt>
      <trkpt lat="55.651389937705" lon="-5.234907179281">
        <ele>35.8</ele>
        <time>2026-05-04T13:26:31Z</time>
      </trkpt>
      <trkpt lat="55.651367977127" lon="-5.234902653055">
        <ele>35.8</ele>
        <time>2026-05-04T13:26:32Z</time>
      </trkpt>
      <trkpt lat="55.651344340169" lon="-5.234899467933">
        <ele>35.8</ele>
        <time>2026-05-04T13:26:33Z</time>
      </trkpt>
      <trkpt lat="55.651318691555" lon="-5.234897959191">
        <ele>36</ele>
        <time>2026-05-04T13:26:34Z</time>
      </trkpt>
      <trkpt lat="55.651292204751" lon="-5.234898797381">
        <ele>36</ele>
        <time>2026-05-04T13:26:35Z</time>
      </trkpt>
      <trkpt lat="55.651261694635" lon="-5.234903155969">
        <ele>36</ele>
        <time>2026-05-04T13:26:36Z</time>
      </trkpt>
      <trkpt lat="55.651231519795" lon="-5.234910951136">
        <ele>36</ele>
        <time>2026-05-04T13:26:37Z</time>
      </trkpt>
      <trkpt lat="55.651200422946" lon="-5.234922601977">
        <ele>36</ele>
        <time>2026-05-04T13:26:38Z</time>
      </trkpt>
      <trkpt lat="55.651168907002" lon="-5.23493827613">
        <ele>36</ele>
        <time>2026-05-04T13:26:39Z</time>
      </trkpt>
      <trkpt lat="55.651136888144" lon="-5.234958225052">
        <ele>36</ele>
        <time>2026-05-04T13:26:40Z</time>
      </trkpt>
      <trkpt lat="55.651104282553" lon="-5.23498102382">
        <ele>36</ele>
        <time>2026-05-04T13:26:41Z</time>
      </trkpt>
      <trkpt lat="55.651071928419" lon="-5.235008935547">
        <ele>36</ele>
        <time>2026-05-04T13:26:42Z</time>
      </trkpt>
      <trkpt lat="55.651040580113" lon="-5.23504304988">
        <ele>36</ele>
        <time>2026-05-04T13:26:43Z</time>
      </trkpt>
      <trkpt lat="55.651010908187" lon="-5.235083702095">
        <ele>36.2</ele>
        <time>2026-05-04T13:26:44Z</time>
      </trkpt>
      <trkpt lat="55.650982661184" lon="-5.23512854526">
        <ele>36.2</ele>
        <time>2026-05-04T13:26:45Z</time>
      </trkpt>
      <trkpt lat="55.650957096389" lon="-5.235175819176">
        <ele>36.2</ele>
        <time>2026-05-04T13:26:46Z</time>
      </trkpt>
      <trkpt lat="55.650936560734" lon="-5.235221919626">
        <ele>36.4</ele>
        <time>2026-05-04T13:26:47Z</time>
      </trkpt>
      <trkpt lat="55.650919796934" lon="-5.235269612637">
        <ele>36.4</ele>
        <time>2026-05-04T13:26:48Z</time>
      </trkpt>
      <trkpt lat="55.650906469713" lon="-5.23531965258">
        <ele>36.6</ele>
        <time>2026-05-04T13:26:49Z</time>
      </trkpt>
      <trkpt lat="55.650896746709" lon="-5.235371285084">
        <ele>36.6</ele>
        <time>2026-05-04T13:26:50Z</time>
      </trkpt>
      <trkpt lat="55.650890544103" lon="-5.235424007235">
        <ele>36.8</ele>
        <time>2026-05-04T13:26:51Z</time>
      </trkpt>
      <trkpt lat="55.650887610438" lon="-5.235477735214">
        <ele>37</ele>
        <time>2026-05-04T13:26:52Z</time>
      </trkpt>
      <trkpt lat="55.650887945714" lon="-5.235531630831">
        <ele>37</ele>
        <time>2026-05-04T13:26:53Z</time>
      </trkpt>
      <trkpt lat="55.650891298474" lon="-5.235586113181">
        <ele>37.2</ele>
        <time>2026-05-04T13:26:54Z</time>
      </trkpt>
      <trkpt lat="55.650897668718" lon="-5.235641349902">
        <ele>37.2</ele>
        <time>2026-05-04T13:26:55Z</time>
      </trkpt>
      <trkpt lat="55.650906804989" lon="-5.235696335166">
        <ele>37.4</ele>
        <time>2026-05-04T13:26:56Z</time>
      </trkpt>
      <trkpt lat="55.650918539649" lon="-5.23575048224">
        <ele>37.6</ele>
        <time>2026-05-04T13:26:57Z</time>
      </trkpt>
      <trkpt lat="55.650932621241" lon="-5.23580328821">
        <ele>37.6</ele>
        <time>2026-05-04T13:26:58Z</time>
      </trkpt>
      <trkpt lat="55.650948295394" lon="-5.235855004533">
        <ele>37.8</ele>
        <time>2026-05-04T13:26:59Z</time>
      </trkpt>
      <trkpt lat="55.650966316479" lon="-5.235905044476">
        <ele>37.8</ele>
        <time>2026-05-04T13:27:00Z</time>
      </trkpt>
      <trkpt lat="55.650986516858" lon="-5.235952988944">
        <ele>38</ele>
        <time>2026-05-04T13:27:01Z</time>
      </trkpt>
      <trkpt lat="55.651008225979" lon="-5.235998335023">
        <ele>38</ele>
        <time>2026-05-04T13:27:02Z</time>
      </trkpt>
      <trkpt lat="55.651030940928" lon="-5.236039238695">
        <ele>38.2</ele>
        <time>2026-05-04T13:27:03Z</time>
      </trkpt>
      <trkpt lat="55.651057930646" lon="-5.236079974729">
        <ele>38.2</ele>
        <time>2026-05-04T13:27:04Z</time>
      </trkpt>
      <trkpt lat="55.651086345287" lon="-5.2361142567">
        <ele>38.4</ele>
        <time>2026-05-04T13:27:05Z</time>
      </trkpt>
      <trkpt lat="55.651117274498" lon="-5.236142419884">
        <ele>38.4</ele>
        <time>2026-05-04T13:27:06Z</time>
      </trkpt>
      <trkpt lat="55.651150550641" lon="-5.236162787901">
        <ele>38.4</ele>
        <time>2026-05-04T13:27:07Z</time>
      </trkpt>
      <trkpt lat="55.651185586983" lon="-5.236174522561">
        <ele>38.6</ele>
        <time>2026-05-04T13:27:08Z</time>
      </trkpt>
      <trkpt lat="55.651221796791" lon="-5.23617795914">
        <ele>38.6</ele>
        <time>2026-05-04T13:27:09Z</time>
      </trkpt>
      <trkpt lat="55.651258677151" lon="-5.236174857837">
        <ele>38.6</ele>
        <time>2026-05-04T13:27:10Z</time>
      </trkpt>
      <trkpt lat="55.65129564133" lon="-5.236164380462">
        <ele>38.8</ele>
        <time>2026-05-04T13:27:11Z</time>
      </trkpt>
      <trkpt lat="55.651332689328" lon="-5.236147532843">
        <ele>38.8</ele>
        <time>2026-05-04T13:27:12Z</time>
      </trkpt>
      <trkpt lat="55.651369569688" lon="-5.236124398799">
        <ele>38.8</ele>
        <time>2026-05-04T13:27:13Z</time>
      </trkpt>
      <trkpt lat="55.651406366229" lon="-5.236096906167">
        <ele>38.8</ele>
        <time>2026-05-04T13:27:14Z</time>
      </trkpt>
      <trkpt lat="55.65144316277" lon="-5.236065809318">
        <ele>38.8</ele>
        <time>2026-05-04T13:27:15Z</time>
      </trkpt>
      <trkpt lat="55.651479959311" lon="-5.236031024433">
        <ele>39</ele>
        <time>2026-05-04T13:27:16Z</time>
      </trkpt>
      <trkpt lat="55.651516588214" lon="-5.235992551512">
        <ele>39</ele>
        <time>2026-05-04T13:27:17Z</time>
      </trkpt>
      <trkpt lat="55.65155296566" lon="-5.235950558193">
        <ele>39</ele>
        <time>2026-05-04T13:27:18Z</time>
      </trkpt>
      <trkpt lat="55.651587750545" lon="-5.235907307589">
        <ele>39</ele>
        <time>2026-05-04T13:27:19Z</time>
      </trkpt>
      <trkpt lat="55.651625301457" lon="-5.23585777056">
        <ele>39</ele>
        <time>2026-05-04T13:27:20Z</time>
      </trkpt>
      <trkpt lat="55.651661259808" lon="-5.235807060065">
        <ele>39</ele>
        <time>2026-05-04T13:27:21Z</time>
      </trkpt>
      <trkpt lat="55.651698391625" lon="-5.235756517208">
        <ele>39</ele>
        <time>2026-05-04T13:27:22Z</time>
      </trkpt>
      <trkpt lat="55.651736361632" lon="-5.235704800885">
        <ele>39</ele>
        <time>2026-05-04T13:27:23Z</time>
      </trkpt>
      <trkpt lat="55.651775253648" lon="-5.235651994915">
        <ele>39</ele>
        <time>2026-05-04T13:27:24Z</time>
      </trkpt>
      <trkpt lat="55.651815822044" lon="-5.235600194773">
        <ele>38.8</ele>
        <time>2026-05-04T13:27:25Z</time>
      </trkpt>
      <trkpt lat="55.651858988829" lon="-5.235551998848">
        <ele>38.8</ele>
        <time>2026-05-04T13:27:26Z</time>
      </trkpt>
      <trkpt lat="55.651904837822" lon="-5.235508329149">
        <ele>38.8</ele>
        <time>2026-05-04T13:27:27Z</time>
      </trkpt>
      <trkpt lat="55.651953452842" lon="-5.235470694418">
        <ele>38.8</ele>
        <time>2026-05-04T13:27:28Z</time>
      </trkpt>
      <trkpt lat="55.652004917708" lon="-5.235441693044">
        <ele>38.8</ele>
        <time>2026-05-04T13:27:29Z</time>
      </trkpt>
      <trkpt lat="55.652058897144" lon="-5.235424258692">
        <ele>38.8</ele>
        <time>2026-05-04T13:27:30Z</time>
      </trkpt>
      <trkpt lat="55.652114469141" lon="-5.23542358814">
        <ele>38.6</ele>
        <time>2026-05-04T13:27:31Z</time>
      </trkpt>
      <trkpt lat="55.652169789681" lon="-5.235442531234">
        <ele>38.6</ele>
        <time>2026-05-04T13:27:32Z</time>
      </trkpt>
      <trkpt lat="55.652223350022" lon="-5.235477567576">
        <ele>38.6</ele>
        <time>2026-05-04T13:27:33Z</time>
      </trkpt>
      <trkpt lat="55.652275066345" lon="-5.235524003302">
        <ele>38.6</ele>
        <time>2026-05-04T13:27:34Z</time>
      </trkpt>
      <trkpt lat="55.652325022469" lon="-5.235578234195">
        <ele>38.6</ele>
        <time>2026-05-04T13:27:35Z</time>
      </trkpt>
      <trkpt lat="55.652373805127" lon="-5.235637913323">
        <ele>38.4</ele>
        <time>2026-05-04T13:27:36Z</time>
      </trkpt>
      <trkpt lat="55.652422755423" lon="-5.235699939383">
        <ele>38.4</ele>
        <time>2026-05-04T13:27:37Z</time>
      </trkpt>
      <trkpt lat="55.652473046823" lon="-5.235760959615">
        <ele>38.4</ele>
        <time>2026-05-04T13:27:38Z</time>
      </trkpt>
      <trkpt lat="55.652526523345" lon="-5.235816363974">
        <ele>38.2</ele>
        <time>2026-05-04T13:27:39Z</time>
      </trkpt>
      <trkpt lat="55.652583687903" lon="-5.235863302614">
        <ele>38.2</ele>
        <time>2026-05-04T13:27:40Z</time>
      </trkpt>
      <trkpt lat="55.652645546325" lon="-5.235894315644">
        <ele>38</ele>
        <time>2026-05-04T13:27:41Z</time>
      </trkpt>
      <trkpt lat="55.652711176602" lon="-5.235900685888">
        <ele>37.8</ele>
        <time>2026-05-04T13:27:42Z</time>
      </trkpt>
      <trkpt lat="55.652777393612" lon="-5.235877803301">
        <ele>37.6</ele>
        <time>2026-05-04T13:27:43Z</time>
      </trkpt>
      <trkpt lat="55.6528404255" lon="-5.23582591934">
        <ele>37.4</ele>
        <time>2026-05-04T13:27:44Z</time>
      </trkpt>
      <trkpt lat="55.65289658423" lon="-5.235749057317">
        <ele>37.4</ele>
        <time>2026-05-04T13:27:45Z</time>
      </trkpt>
      <trkpt lat="55.652944612517" lon="-5.235653168381">
        <ele>37.2</ele>
        <time>2026-05-04T13:27:46Z</time>
      </trkpt>
      <trkpt lat="55.652985600008" lon="-5.235545377147">
        <ele>37</ele>
        <time>2026-05-04T13:27:47Z</time>
      </trkpt>
      <trkpt lat="55.653021558359" lon="-5.23543029366">
        <ele>36.8</ele>
        <time>2026-05-04T13:27:48Z</time>
      </trkpt>
      <trkpt lat="55.653054583045" lon="-5.235311103042">
        <ele>36.8</ele>
        <time>2026-05-04T13:27:49Z</time>
      </trkpt>
      <trkpt lat="55.653086434265" lon="-5.235189314035">
        <ele>36.6</ele>
        <time>2026-05-04T13:27:50Z</time>
      </trkpt>
      <trkpt lat="55.653117447295" lon="-5.235070626331">
        <ele>36.4</ele>
        <time>2026-05-04T13:27:51Z</time>
      </trkpt>
      <trkpt lat="55.653155082026" lon="-5.234942550899">
        <ele>36.2</ele>
        <time>2026-05-04T13:27:52Z</time>
      </trkpt>
      <trkpt lat="55.653201182476" lon="-5.234825791032">
        <ele>35.8</ele>
        <time>2026-05-04T13:27:53Z</time>
      </trkpt>
      <trkpt lat="55.653261532156" lon="-5.234724286223">
        <ele>35.2</ele>
        <time>2026-05-04T13:27:54Z</time>
      </trkpt>
      <trkpt lat="55.653340070559" lon="-5.234657650118">
        <ele>34.6</ele>
        <time>2026-05-04T13:27:55Z</time>
      </trkpt>
      <trkpt lat="55.653432271459" lon="-5.234655470824">
        <ele>33.6</ele>
        <time>2026-05-04T13:27:56Z</time>
      </trkpt>
      <trkpt lat="55.65352187397" lon="-5.234729483001">
        <ele>32.4</ele>
        <time>2026-05-04T13:27:57Z</time>
      </trkpt>
      <trkpt lat="55.653602004934" lon="-5.234850517637">
        <ele>31.4</ele>
        <time>2026-05-04T13:27:58Z</time>
      </trkpt>
      <trkpt lat="55.653676771482" lon="-5.234994015765">
        <ele>30.6</ele>
        <time>2026-05-04T13:27:59Z</time>
      </trkpt>
      <trkpt lat="55.653750951297" lon="-5.235147739811">
        <ele>29.6</ele>
        <time>2026-05-04T13:28:00Z</time>
      </trkpt>
      <trkpt lat="55.653832255727" lon="-5.235298194916">
        <ele>28.6</ele>
        <time>2026-05-04T13:28:01Z</time>
      </trkpt>
      <trkpt lat="55.653931497423" lon="-5.235418642819">
        <ele>27.8</ele>
        <time>2026-05-04T13:28:02Z</time>
      </trkpt>
      <trkpt lat="55.654045323625" lon="-5.235498103231">
        <ele>27.2</ele>
        <time>2026-05-04T13:28:03Z</time>
      </trkpt>
      <trkpt lat="55.654167196451" lon="-5.235511681909">
        <ele>26.8</ele>
        <time>2026-05-04T13:28:04Z</time>
      </trkpt>
      <trkpt lat="55.654282028481" lon="-5.235446470727">
        <ele>26.8</ele>
        <time>2026-05-04T13:28:05Z</time>
      </trkpt>
      <trkpt lat="55.654383700928" lon="-5.235339433864">
        <ele>26.8</ele>
        <time>2026-05-04T13:28:06Z</time>
      </trkpt>
      <trkpt lat="55.654476404742" lon="-5.235216471391">
        <ele>26.8</ele>
        <time>2026-05-04T13:28:07Z</time>
      </trkpt>
      <trkpt lat="55.654565336701" lon="-5.235092586909">
        <ele>26.8</ele>
        <time>2026-05-04T13:28:08Z</time>
      </trkpt>
      <trkpt lat="55.65465175409" lon="-5.234970043531">
        <ele>26.8</ele>
        <time>2026-05-04T13:28:09Z</time>
      </trkpt>
      <trkpt lat="55.654733980529" lon="-5.234844482669">
        <ele>26.8</ele>
        <time>2026-05-04T13:28:10Z</time>
      </trkpt>
      <trkpt lat="55.654813105665" lon="-5.234718335074">
        <ele>26.8</ele>
        <time>2026-05-04T13:28:11Z</time>
      </trkpt>
      <trkpt lat="55.65489063824" lon="-5.234594199135">
        <ele>26.8</ele>
        <time>2026-05-04T13:28:12Z</time>
      </trkpt>
      <trkpt lat="55.654967164987" lon="-5.234473332137">
        <ele>26.8</ele>
        <time>2026-05-04T13:28:13Z</time>
      </trkpt>
      <trkpt lat="55.655044362286" lon="-5.234358583926">
        <ele>26.8</ele>
        <time>2026-05-04T13:28:14Z</time>
      </trkpt>
      <trkpt lat="55.655120805214" lon="-5.23424676938">
        <ele>26.8</ele>
        <time>2026-05-04T13:28:15Z</time>
      </trkpt>
      <trkpt lat="55.655193308649" lon="-5.234131350617">
        <ele>26.8</ele>
        <time>2026-05-04T13:28:16Z</time>
      </trkpt>
      <trkpt lat="55.655259106564" lon="-5.234007549954">
        <ele>26.8</ele>
        <time>2026-05-04T13:28:17Z</time>
      </trkpt>
      <trkpt lat="55.655319623882" lon="-5.233879558341">
        <ele>26.8</ele>
        <time>2026-05-04T13:28:18Z</time>
      </trkpt>
      <trkpt lat="55.655371843119" lon="-5.233744945027">
        <ele>26.8</ele>
        <time>2026-05-04T13:28:19Z</time>
      </trkpt>
      <trkpt lat="55.655409058755" lon="-5.233600189614">
        <ele>26.8</ele>
        <time>2026-05-04T13:28:20Z</time>
      </trkpt>
      <trkpt lat="55.655428504763" lon="-5.23344965069">
        <ele>27</ele>
        <time>2026-05-04T13:28:21Z</time>
      </trkpt>
      <trkpt lat="55.655435294102" lon="-5.233300788146">
        <ele>27</ele>
        <time>2026-05-04T13:28:22Z</time>
      </trkpt>
      <trkpt lat="55.655435126464" lon="-5.233156535647">
        <ele>27.2</ele>
        <time>2026-05-04T13:28:23Z</time>
      </trkpt>
      <trkpt lat="55.655432863351" lon="-5.233017479926">
        <ele>27.2</ele>
        <time>2026-05-04T13:28:24Z</time>
      </trkpt>
      <trkpt lat="55.655432025161" lon="-5.232883537164">
        <ele>27.4</ele>
        <time>2026-05-04T13:28:25Z</time>
      </trkpt>
      <trkpt lat="55.655438982138" lon="-5.232755461732">
        <ele>27.4</ele>
        <time>2026-05-04T13:28:26Z</time>
      </trkpt>
      <trkpt lat="55.65545893106" lon="-5.232637528399">
        <ele>27.6</ele>
        <time>2026-05-04T13:28:27Z</time>
      </trkpt>
      <trkpt lat="55.655495643782" lon="-5.232539543988">
        <ele>27.8</ele>
        <time>2026-05-04T13:28:28Z</time>
      </trkpt>
      <trkpt lat="55.655543001517" lon="-5.232464106888">
        <ele>27.8</ele>
        <time>2026-05-04T13:28:29Z</time>
      </trkpt>
      <trkpt lat="55.655593292917" lon="-5.232402499923">
        <ele>28</ele>
        <time>2026-05-04T13:28:30Z</time>
      </trkpt>
      <trkpt lat="55.655644087231" lon="-5.232350029229">
        <ele>28</ele>
        <time>2026-05-04T13:28:31Z</time>
      </trkpt>
      <trkpt lat="55.655694630088" lon="-5.232305437521">
        <ele>28.2</ele>
        <time>2026-05-04T13:28:32Z</time>
      </trkpt>
      <trkpt lat="55.65574475385" lon="-5.232267970428">
        <ele>28.2</ele>
        <time>2026-05-04T13:28:33Z</time>
      </trkpt>
      <trkpt lat="55.655794039422" lon="-5.232236873579">
        <ele>28.2</ele>
        <time>2026-05-04T13:28:34Z</time>
      </trkpt>
      <trkpt lat="55.655842319166" lon="-5.232211308784">
        <ele>28.4</ele>
        <time>2026-05-04T13:28:35Z</time>
      </trkpt>
      <trkpt lat="55.655886659417" lon="-5.232191443681">
        <ele>28.4</ele>
        <time>2026-05-04T13:28:36Z</time>
      </trkpt>
      <trkpt lat="55.655924461786" lon="-5.23217727827">
        <ele>28.4</ele>
        <time>2026-05-04T13:28:37Z</time>
      </trkpt>
      <trkpt lat="55.655955642454" lon="-5.232167471447">
        <ele>28.4</ele>
        <time>2026-05-04T13:28:38Z</time>
      </trkpt>
      <trkpt lat="55.655980117602" lon="-5.232160933565">
        <ele>28.6</ele>
        <time>2026-05-04T13:28:39Z</time>
      </trkpt>
      <trkpt lat="55.655997803411" lon="-5.232156910253">
        <ele>28.6</ele>
        <time>2026-05-04T13:28:40Z</time>
      </trkpt>
      <trkpt lat="55.656009789528" lon="-5.232154563321">
        <ele>28.6</ele>
        <time>2026-05-04T13:28:41Z</time>
      </trkpt>
      <trkpt lat="55.656022446197" lon="-5.232152467846">
        <ele>28.6</ele>
        <time>2026-05-04T13:28:42Z</time>
      </trkpt>
      <trkpt lat="55.656038707083" lon="-5.232150120914">
        <ele>28.6</ele>
        <time>2026-05-04T13:28:43Z</time>
      </trkpt>
      <trkpt lat="55.656058991281" lon="-5.232147438706">
        <ele>28.6</ele>
        <time>2026-05-04T13:28:44Z</time>
      </trkpt>
      <trkpt lat="55.656082795877" lon="-5.232144253584">
        <ele>28.6</ele>
        <time>2026-05-04T13:28:45Z</time>
      </trkpt>
      <trkpt lat="55.656109617957" lon="-5.232140733186">
        <ele>28.6</ele>
        <time>2026-05-04T13:28:46Z</time>
      </trkpt>
      <trkpt lat="55.656138786969" lon="-5.232136793693">
        <ele>28.8</ele>
        <time>2026-05-04T13:28:47Z</time>
      </trkpt>
      <trkpt lat="55.656169045628" lon="-5.2321328542">
        <ele>28.8</ele>
        <time>2026-05-04T13:28:48Z</time>
      </trkpt>
      <trkpt lat="55.656199974839" lon="-5.232128747069">
        <ele>28.8</ele>
        <time>2026-05-04T13:28:49Z</time>
      </trkpt>
      <trkpt lat="55.656231658421" lon="-5.232124556119">
        <ele>28.8</ele>
        <time>2026-05-04T13:28:50Z</time>
      </trkpt>
      <trkpt lat="55.656264180193" lon="-5.232120700445">
        <ele>29</ele>
        <time>2026-05-04T13:28:51Z</time>
      </trkpt>
      <trkpt lat="55.656297791612" lon="-5.23211776678">
        <ele>29</ele>
        <time>2026-05-04T13:28:52Z</time>
      </trkpt>
      <trkpt lat="55.65633232504" lon="-5.232115755124">
        <ele>29</ele>
        <time>2026-05-04T13:28:53Z</time>
      </trkpt>
      <trkpt lat="55.656367696658" lon="-5.23211441402">
        <ele>29</ele>
        <time>2026-05-04T13:28:54Z</time>
      </trkpt>
      <trkpt lat="55.656403822647" lon="-5.232113240554">
        <ele>29.2</ele>
        <time>2026-05-04T13:28:55Z</time>
      </trkpt>
      <trkpt lat="55.656440535369" lon="-5.232111983269">
        <ele>29.2</ele>
        <time>2026-05-04T13:28:56Z</time>
      </trkpt>
      <trkpt lat="55.656477751005" lon="-5.232110725984">
        <ele>29.2</ele>
        <time>2026-05-04T13:28:57Z</time>
      </trkpt>
      <trkpt lat="55.656515385736" lon="-5.232109468699">
        <ele>29.4</ele>
        <time>2026-05-04T13:28:58Z</time>
      </trkpt>
      <trkpt lat="55.656553439562" lon="-5.232108043776">
        <ele>29.4</ele>
        <time>2026-05-04T13:28:59Z</time>
      </trkpt>
      <trkpt lat="55.656591744845" lon="-5.232106618853">
        <ele>29.6</ele>
        <time>2026-05-04T13:29:00Z</time>
      </trkpt>
      <trkpt lat="55.656630133947" lon="-5.232105361568">
        <ele>29.6</ele>
        <time>2026-05-04T13:29:01Z</time>
      </trkpt>
      <trkpt lat="55.656668606868" lon="-5.232105445387">
        <ele>29.8</ele>
        <time>2026-05-04T13:29:02Z</time>
      </trkpt>
      <trkpt lat="55.656706912151" lon="-5.232108211414">
        <ele>29.8</ele>
        <time>2026-05-04T13:29:03Z</time>
      </trkpt>
      <trkpt lat="55.656745049796" lon="-5.232113492011">
        <ele>30</ele>
        <time>2026-05-04T13:29:04Z</time>
      </trkpt>
      <trkpt lat="55.656783019803" lon="-5.232121873911">
        <ele>30</ele>
        <time>2026-05-04T13:29:05Z</time>
      </trkpt>
      <trkpt lat="55.656820486896" lon="-5.232133440933">
        <ele>30.2</ele>
        <time>2026-05-04T13:29:06Z</time>
      </trkpt>
      <trkpt lat="55.656857115799" lon="-5.232148025439">
        <ele>30.4</ele>
        <time>2026-05-04T13:29:07Z</time>
      </trkpt>
      <trkpt lat="55.656892822693" lon="-5.232164956877">
        <ele>30.6</ele>
        <time>2026-05-04T13:29:08Z</time>
      </trkpt>
      <trkpt lat="55.656927607578" lon="-5.232183816152">
        <ele>30.6</ele>
        <time>2026-05-04T13:29:09Z</time>
      </trkpt>
      <trkpt lat="55.656961721911" lon="-5.23220410035">
        <ele>30.8</ele>
        <time>2026-05-04T13:29:10Z</time>
      </trkpt>
      <trkpt lat="55.656995417149" lon="-5.232225558014">
        <ele>31</ele>
        <time>2026-05-04T13:29:11Z</time>
      </trkpt>
      <trkpt lat="55.657028693292" lon="-5.23224768623">
        <ele>31</ele>
        <time>2026-05-04T13:29:12Z</time>
      </trkpt>
      <trkpt lat="55.657061634159" lon="-5.232269730627">
        <ele>31.2</ele>
        <time>2026-05-04T13:29:13Z</time>
      </trkpt>
      <trkpt lat="55.657094407388" lon="-5.232291858843">
        <ele>31.4</ele>
        <time>2026-05-04T13:29:14Z</time>
      </trkpt>
      <trkpt lat="55.657127348255" lon="-5.232313819421">
        <ele>31.6</ele>
        <time>2026-05-04T13:29:15Z</time>
      </trkpt>
      <trkpt lat="55.657160372941" lon="-5.232335444723">
        <ele>31.6</ele>
        <time>2026-05-04T13:29:16Z</time>
      </trkpt>
      <trkpt lat="55.657192978532" lon="-5.232356902387">
        <ele>31.8</ele>
        <time>2026-05-04T13:29:17Z</time>
      </trkpt>
      <trkpt lat="55.657225165028" lon="-5.232378527689">
        <ele>32</ele>
        <time>2026-05-04T13:29:18Z</time>
      </trkpt>
      <trkpt lat="55.657257519162" lon="-5.232398811887">
        <ele>32.2</ele>
        <time>2026-05-04T13:29:19Z</time>
      </trkpt>
      <trkpt lat="55.657289957115" lon="-5.232418090257">
        <ele>32.4</ele>
        <time>2026-05-04T13:29:20Z</time>
      </trkpt>
      <trkpt lat="55.657322646525" lon="-5.232435692247">
        <ele>32.4</ele>
        <time>2026-05-04T13:29:21Z</time>
      </trkpt>
      <trkpt lat="55.65735575503" lon="-5.232450276753">
        <ele>32.6</ele>
        <time>2026-05-04T13:29:22Z</time>
      </trkpt>
      <trkpt lat="55.657389366449" lon="-5.232463520155">
        <ele>32.8</ele>
        <time>2026-05-04T13:29:23Z</time>
      </trkpt>
      <trkpt lat="55.657423396963" lon="-5.232473829892">
        <ele>33</ele>
        <time>2026-05-04T13:29:24Z</time>
      </trkpt>
      <trkpt lat="55.657457678934" lon="-5.232482714706">
        <ele>33</ele>
        <time>2026-05-04T13:29:25Z</time>
      </trkpt>
      <trkpt lat="55.657491960905" lon="-5.232489420226">
        <ele>33.2</ele>
        <time>2026-05-04T13:29:26Z</time>
      </trkpt>
      <trkpt lat="55.657526326695" lon="-5.232493778814">
        <ele>33.4</ele>
        <time>2026-05-04T13:29:27Z</time>
      </trkpt>
      <trkpt lat="55.657560608666" lon="-5.23249579047">
        <ele>33.6</ele>
        <time>2026-05-04T13:29:28Z</time>
      </trkpt>
      <trkpt lat="55.657594387723" lon="-5.232495539013">
        <ele>33.8</ele>
        <time>2026-05-04T13:29:29Z</time>
      </trkpt>
      <trkpt lat="55.657627244771" lon="-5.232493443538">
        <ele>34</ele>
        <time>2026-05-04T13:29:30Z</time>
      </trkpt>
      <trkpt lat="55.657659682724" lon="-5.232490258416">
        <ele>34.2</ele>
        <time>2026-05-04T13:29:31Z</time>
      </trkpt>
      <trkpt lat="55.657692036858" lon="-5.232486318923">
        <ele>34.4</ele>
        <time>2026-05-04T13:29:32Z</time>
      </trkpt>
      <trkpt lat="55.657724055716" lon="-5.232481205964">
        <ele>34.6</ele>
        <time>2026-05-04T13:29:33Z</time>
      </trkpt>
      <trkpt lat="55.657755739298" lon="-5.232474751901">
        <ele>34.6</ele>
        <time>2026-05-04T13:29:34Z</time>
      </trkpt>
      <trkpt lat="55.657787590518" lon="-5.232466789096">
        <ele>34.8</ele>
        <time>2026-05-04T13:29:35Z</time>
      </trkpt>
      <trkpt lat="55.657820028471" lon="-5.232457317549">
        <ele>35</ele>
        <time>2026-05-04T13:29:36Z</time>
      </trkpt>
      <trkpt lat="55.65785363989" lon="-5.232446840174">
        <ele>35.2</ele>
        <time>2026-05-04T13:29:37Z</time>
      </trkpt>
      <trkpt lat="55.657888340956" lon="-5.23243376441">
        <ele>35.4</ele>
        <time>2026-05-04T13:29:38Z</time>
      </trkpt>
      <trkpt lat="55.657923628755" lon="-5.232418174076">
        <ele>35.6</ele>
        <time>2026-05-04T13:29:39Z</time>
      </trkpt>
      <trkpt lat="55.657958748916" lon="-5.232399733896">
        <ele>35.6</ele>
        <time>2026-05-04T13:29:40Z</time>
      </trkpt>
      <trkpt lat="55.657993114706" lon="-5.232378192413">
        <ele>35.8</ele>
        <time>2026-05-04T13:29:41Z</time>
      </trkpt>
      <trkpt lat="55.658027396677" lon="-5.232356818568">
        <ele>36</ele>
        <time>2026-05-04T13:29:42Z</time>
      </trkpt>
      <trkpt lat="55.658061427191" lon="-5.232335528542">
        <ele>36.2</ele>
        <time>2026-05-04T13:29:43Z</time>
      </trkpt>
      <trkpt lat="55.658095373886" lon="-5.23231390324">
        <ele>36.2</ele>
        <time>2026-05-04T13:29:44Z</time>
      </trkpt>
      <trkpt lat="55.658129236762" lon="-5.232291020653">
        <ele>36.4</ele>
        <time>2026-05-04T13:29:45Z</time>
      </trkpt>
      <trkpt lat="55.658162932" lon="-5.232266461686">
        <ele>36.6</ele>
        <time>2026-05-04T13:29:46Z</time>
      </trkpt>
      <trkpt lat="55.658196627238" lon="-5.232240393977">
        <ele>36.6</ele>
        <time>2026-05-04T13:29:47Z</time>
      </trkpt>
      <trkpt lat="55.658231160666" lon="-5.232213404259">
        <ele>36.8</ele>
        <time>2026-05-04T13:29:48Z</time>
      </trkpt>
      <trkpt lat="55.658267035198" lon="-5.232186665998">
        <ele>36.8</ele>
        <time>2026-05-04T13:29:49Z</time>
      </trkpt>
      <trkpt lat="55.658304669929" lon="-5.232163531954">
        <ele>36.8</ele>
        <time>2026-05-04T13:29:50Z</time>
      </trkpt>
      <trkpt lat="55.658344316316" lon="-5.232144756498">
        <ele>36.8</ele>
        <time>2026-05-04T13:29:51Z</time>
      </trkpt>
      <trkpt lat="55.658386141997" lon="-5.232129333802">
        <ele>37</ele>
        <time>2026-05-04T13:29:52Z</time>
      </trkpt>
      <trkpt lat="55.658430146972" lon="-5.232116677133">
        <ele>37</ele>
        <time>2026-05-04T13:29:53Z</time>
      </trkpt>
      <trkpt lat="55.658476247422" lon="-5.23210603212">
        <ele>36.8</ele>
        <time>2026-05-04T13:29:54Z</time>
      </trkpt>
      <trkpt lat="55.658524275709" lon="-5.232096141478">
        <ele>36.8</ele>
        <time>2026-05-04T13:29:55Z</time>
      </trkpt>
      <trkpt lat="55.658574064195" lon="-5.23208591556">
        <ele>36.8</ele>
        <time>2026-05-04T13:29:56Z</time>
      </trkpt>
      <trkpt lat="55.658625445242" lon="-5.232073761805">
        <ele>36.8</ele>
        <time>2026-05-04T13:29:57Z</time>
      </trkpt>
      <trkpt lat="55.658677496841" lon="-5.232054567254">
        <ele>36.8</ele>
        <time>2026-05-04T13:29:58Z</time>
      </trkpt>
      <trkpt lat="55.658729129345" lon="-5.232024811509">
        <ele>36.8</ele>
        <time>2026-05-04T13:29:59Z</time>
      </trkpt>
      <trkpt lat="55.658778917831" lon="-5.231984159294">
        <ele>37</ele>
        <time>2026-05-04T13:30:00Z</time>
      </trkpt>
      <trkpt lat="55.658826191747" lon="-5.231933616437">
        <ele>37</ele>
        <time>2026-05-04T13:30:01Z</time>
      </trkpt>
      <trkpt lat="55.658870615817" lon="-5.231874607861">
        <ele>37</ele>
        <time>2026-05-04T13:30:02Z</time>
      </trkpt>
      <trkpt lat="55.65891227386" lon="-5.231807468842">
        <ele>37</ele>
        <time>2026-05-04T13:30:03Z</time>
      </trkpt>
      <trkpt lat="55.658950579143" lon="-5.231732367018">
        <ele>37</ele>
        <time>2026-05-04T13:30:04Z</time>
      </trkpt>
      <trkpt lat="55.658984525838" lon="-5.231649470027">
        <ele>37.2</ele>
        <time>2026-05-04T13:30:05Z</time>
      </trkpt>
      <trkpt lat="55.659012689022" lon="-5.231558777869">
        <ele>37.2</ele>
        <time>2026-05-04T13:30:06Z</time>
      </trkpt>
      <trkpt lat="55.659033140858" lon="-5.231460542001">
        <ele>37.2</ele>
        <time>2026-05-04T13:30:07Z</time>
      </trkpt>
      <trkpt lat="55.659044791699" lon="-5.231356857898">
        <ele>37.2</ele>
        <time>2026-05-04T13:30:08Z</time>
      </trkpt>
      <trkpt lat="55.659048228278" lon="-5.231249988673">
        <ele>37.2</ele>
        <time>2026-05-04T13:30:09Z</time>
      </trkpt>
      <trkpt lat="55.659043534414" lon="-5.231141862163">
        <ele>37.2</ele>
        <time>2026-05-04T13:30:10Z</time>
      </trkpt>
      <trkpt lat="55.65903045865" lon="-5.231034741481">
        <ele>37.2</ele>
        <time>2026-05-04T13:30:11Z</time>
      </trkpt>
      <trkpt lat="55.659008749529" lon="-5.230930470645">
        <ele>37.2</ele>
        <time>2026-05-04T13:30:12Z</time>
      </trkpt>
      <trkpt lat="55.658976730671" lon="-5.230832486234">
        <ele>37.2</ele>
        <time>2026-05-04T13:30:13Z</time>
      </trkpt>
      <trkpt lat="55.658935324085" lon="-5.23074313518">
        <ele>37.2</ele>
        <time>2026-05-04T13:30:14Z</time>
      </trkpt>
      <trkpt lat="55.658887044341" lon="-5.230661495474">
        <ele>37.2</ele>
        <time>2026-05-04T13:30:15Z</time>
      </trkpt>
      <trkpt lat="55.658832226715" lon="-5.230590081686">
        <ele>37.2</ele>
        <time>2026-05-04T13:30:16Z</time>
      </trkpt>
      <trkpt lat="55.658773804872" lon="-5.230527385074">
        <ele>37.4</ele>
        <time>2026-05-04T13:30:17Z</time>
      </trkpt>
      <trkpt lat="55.658713874287" lon="-5.230469717602">
        <ele>37.4</ele>
        <time>2026-05-04T13:30:18Z</time>
      </trkpt>
      <trkpt lat="55.658653524607" lon="-5.230414816157">
        <ele>37.4</ele>
        <time>2026-05-04T13:30:19Z</time>
      </trkpt>
      <trkpt lat="55.658593091108" lon="-5.230362261644">
        <ele>37.6</ele>
        <time>2026-05-04T13:30:20Z</time>
      </trkpt>
      <trkpt lat="55.658532154695" lon="-5.230311886425">
        <ele>37.6</ele>
        <time>2026-05-04T13:30:21Z</time>
      </trkpt>
      <trkpt lat="55.658470966825" lon="-5.230262181758">
        <ele>37.6</ele>
        <time>2026-05-04T13:30:22Z</time>
      </trkpt>
      <trkpt lat="55.658409778955" lon="-5.230212225634">
        <ele>37.8</ele>
        <time>2026-05-04T13:30:23Z</time>
      </trkpt>
      <trkpt lat="55.658349596913" lon="-5.23015640218">
        <ele>37.8</ele>
        <time>2026-05-04T13:30:24Z</time>
      </trkpt>
      <trkpt lat="55.658291929441" lon="-5.230089682256">
        <ele>37.6</ele>
        <time>2026-05-04T13:30:25Z</time>
      </trkpt>
      <trkpt lat="55.658234764883" lon="-5.230016927364">
        <ele>37.6</ele>
        <time>2026-05-04T13:30:26Z</time>
      </trkpt>
      <trkpt lat="55.658176259221" lon="-5.22994182554">
        <ele>37.4</ele>
        <time>2026-05-04T13:30:27Z</time>
      </trkpt>
      <trkpt lat="55.658114484618" lon="-5.229869825019">
        <ele>37.4</ele>
        <time>2026-05-04T13:30:28Z</time>
      </trkpt>
      <trkpt lat="55.658047010323" lon="-5.229808469511">
        <ele>37.2</ele>
        <time>2026-05-04T13:30:29Z</time>
      </trkpt>
      <trkpt lat="55.657974423069" lon="-5.229757004645">
        <ele>37</ele>
        <time>2026-05-04T13:30:30Z</time>
      </trkpt>
      <trkpt lat="55.657896219942" lon="-5.229719789009">
        <ele>36.8</ele>
        <time>2026-05-04T13:30:31Z</time>
      </trkpt>
      <trkpt lat="55.657814747874" lon="-5.229686261409">
        <ele>36.4</ele>
        <time>2026-05-04T13:30:32Z</time>
      </trkpt>
      <trkpt lat="55.657730593598" lon="-5.229651644162">
        <ele>36</ele>
        <time>2026-05-04T13:30:33Z</time>
      </trkpt>
      <trkpt lat="55.657643338019" lon="-5.229621385503">
        <ele>35.6</ele>
        <time>2026-05-04T13:30:34Z</time>
      </trkpt>
      <trkpt lat="55.657552981137" lon="-5.229600514572">
        <ele>35.4</ele>
        <time>2026-05-04T13:30:35Z</time>
      </trkpt>
      <trkpt lat="55.657460025866" lon="-5.229586013885">
        <ele>35</ele>
        <time>2026-05-04T13:30:36Z</time>
      </trkpt>
      <trkpt lat="55.657364807482" lon="-5.229573943949">
        <ele>34.6</ele>
        <time>2026-05-04T13:30:37Z</time>
      </trkpt>
      <trkpt lat="55.657267409804" lon="-5.229562879841">
        <ele>34</ele>
        <time>2026-05-04T13:30:38Z</time>
      </trkpt>
      <trkpt lat="55.657167916651" lon="-5.229552402466">
        <ele>33.6</ele>
        <time>2026-05-04T13:30:39Z</time>
      </trkpt>
      <trkpt lat="55.657066830937" lon="-5.229539159064">
        <ele>33.2</ele>
        <time>2026-05-04T13:30:40Z</time>
      </trkpt>
      <trkpt lat="55.656965409947" lon="-5.229509403319">
        <ele>32.8</ele>
        <time>2026-05-04T13:30:41Z</time>
      </trkpt>
      <trkpt lat="55.656866754984" lon="-5.229452909313">
        <ele>32.6</ele>
        <time>2026-05-04T13:30:42Z</time>
      </trkpt>
      <trkpt lat="55.656782013975" lon="-5.229348638477">
        <ele>32.6</ele>
        <time>2026-05-04T13:30:43Z</time>
      </trkpt>
      <trkpt lat="55.656718395354" lon="-5.229208744566">
        <ele>32.6</ele>
        <time>2026-05-04T13:30:44Z</time>
      </trkpt>
      <trkpt lat="55.656675060931" lon="-5.229049404647">
        <ele>32.6</ele>
        <time>2026-05-04T13:30:45Z</time>
      </trkpt>
      <trkpt lat="55.656647149204" lon="-5.228881012276">
        <ele>32.6</ele>
        <time>2026-05-04T13:30:46Z</time>
      </trkpt>
      <trkpt lat="55.656638515847" lon="-5.228707339308">
        <ele>32.4</ele>
        <time>2026-05-04T13:30:47Z</time>
      </trkpt>
      <trkpt lat="55.656656872208" lon="-5.228536432367">
        <ele>32.2</ele>
        <time>2026-05-04T13:30:48Z</time>
      </trkpt>
      <trkpt lat="55.656701883011" lon="-5.22838027757">
        <ele>31.8</ele>
        <time>2026-05-04T13:30:49Z</time>
      </trkpt>
      <trkpt lat="55.656767178012" lon="-5.228245999532">
        <ele>31.6</ele>
        <time>2026-05-04T13:30:50Z</time>
      </trkpt>
      <trkpt lat="55.65684613551" lon="-5.228133682072">
        <ele>31.2</ele>
        <time>2026-05-04T13:30:51Z</time>
      </trkpt>
      <trkpt lat="55.65693163089" lon="-5.228034272738">
        <ele>30.8</ele>
        <time>2026-05-04T13:30:52Z</time>
      </trkpt>
      <trkpt lat="55.656993070217" lon="-5.227890690791">
        <ele>30.4</ele>
        <time>2026-05-04T13:30:53Z</time>
      </trkpt>
      <trkpt lat="55.656999943375" lon="-5.227704864068">
        <ele>29.6</ele>
        <time>2026-05-04T13:30:54Z</time>
      </trkpt>
      <trkpt lat="55.656968427431" lon="-5.227520462268">
        <ele>28.8</ele>
        <time>2026-05-04T13:30:55Z</time>
      </trkpt>
      <trkpt lat="55.656914783271" lon="-5.227347543671">
        <ele>28.2</ele>
        <time>2026-05-04T13:30:56Z</time>
      </trkpt>
      <trkpt lat="55.656845800234" lon="-5.227188455209">
        <ele>27.6</ele>
        <time>2026-05-04T13:30:57Z</time>
      </trkpt>
      <trkpt lat="55.656761059225" lon="-5.2270534228">
        <ele>27.2</ele>
        <time>2026-05-04T13:30:58Z</time>
      </trkpt>
      <trkpt lat="55.656657207484" lon="-5.226972537465">
        <ele>27</ele>
        <time>2026-05-04T13:30:59Z</time>
      </trkpt>
      <trkpt lat="55.656544638567" lon="-5.226953259095">
        <ele>26.8</ele>
        <time>2026-05-04T13:31:00Z</time>
      </trkpt>
      <trkpt lat="55.656433410754" lon="-5.226981925193">
        <ele>26.6</ele>
        <time>2026-05-04T13:31:01Z</time>
      </trkpt>
      <trkpt lat="55.656327714995" lon="-5.227045711452">
        <ele>26.2</ele>
        <time>2026-05-04T13:31:02Z</time>
      </trkpt>
      <trkpt lat="55.656230568774" lon="-5.227140678379">
        <ele>26</ele>
        <time>2026-05-04T13:31:03Z</time>
      </trkpt>
      <trkpt lat="55.656147587964" lon="-5.227270849286">
        <ele>25.6</ele>
        <time>2026-05-04T13:31:04Z</time>
      </trkpt>
      <trkpt lat="55.656084639895" lon="-5.227431949404">
        <ele>25.4</ele>
        <time>2026-05-04T13:31:05Z</time>
      </trkpt>
      <trkpt lat="55.656042814214" lon="-5.227611405883">
        <ele>25.4</ele>
        <time>2026-05-04T13:31:06Z</time>
      </trkpt>
      <trkpt lat="55.656016075953" lon="-5.227797064968">
        <ele>25.2</ele>
        <time>2026-05-04T13:31:07Z</time>
      </trkpt>
      <trkpt lat="55.655994953565" lon="-5.227982388777">
        <ele>25.2</ele>
        <time>2026-05-04T13:31:08Z</time>
      </trkpt>
      <trkpt lat="55.655963186164" lon="-5.228161007066">
        <ele>25</ele>
        <time>2026-05-04T13:31:09Z</time>
      </trkpt>
      <trkpt lat="55.655913984411" lon="-5.228326298134">
        <ele>24.8</ele>
        <time>2026-05-04T13:31:10Z</time>
      </trkpt>
      <trkpt lat="55.65585371855" lon="-5.228479686904">
        <ele>24.6</ele>
        <time>2026-05-04T13:31:11Z</time>
      </trkpt>
      <trkpt lat="55.655786914807" lon="-5.228624526136">
        <ele>24.2</ele>
        <time>2026-05-04T13:31:12Z</time>
      </trkpt>
      <trkpt lat="55.655717512675" lon="-5.228765509694">
        <ele>24</ele>
        <time>2026-05-04T13:31:13Z</time>
      </trkpt>
      <trkpt lat="55.655647356172" lon="-5.22890498451">
        <ele>23.8</ele>
        <time>2026-05-04T13:31:14Z</time>
      </trkpt>
      <trkpt lat="55.655579127506" lon="-5.229046722439">
        <ele>23.6</ele>
        <time>2026-05-04T13:31:15Z</time>
      </trkpt>
      <trkpt lat="55.655516347075" lon="-5.22919499825">
        <ele>23.4</ele>
        <time>2026-05-04T13:31:16Z</time>
      </trkpt>
      <trkpt lat="55.655439233595" lon="-5.229318798913">
        <ele>23</ele>
        <time>2026-05-04T13:31:17Z</time>
      </trkpt>
      <trkpt lat="55.655342757926" lon="-5.229391386167">
        <ele>22.8</ele>
        <time>2026-05-04T13:31:18Z</time>
      </trkpt>
      <trkpt lat="55.655239409099" lon="-5.229400857714">
        <ele>23</ele>
        <time>2026-05-04T13:31:19Z</time>
      </trkpt>
      <trkpt lat="55.655143017249" lon="-5.22935676892">
        <ele>23.6</ele>
        <time>2026-05-04T13:31:20Z</time>
      </trkpt>
      <trkpt lat="55.655056432222" lon="-5.22928803734">
        <ele>23.8</ele>
        <time>2026-05-04T13:31:21Z</time>
      </trkpt>
      <trkpt lat="55.654975714525" lon="-5.229207654919">
        <ele>23.8</ele>
        <time>2026-05-04T13:31:22Z</time>
      </trkpt>
      <trkpt lat="55.654900780339" lon="-5.229113777639">
        <ele>23.8</ele>
        <time>2026-05-04T13:31:23Z</time>
      </trkpt>
      <trkpt lat="55.65483028856" lon="-5.229011853735">
        <ele>23.8</ele>
        <time>2026-05-04T13:31:24Z</time>
      </trkpt>
      <trkpt lat="55.654761389342" lon="-5.228908421089">
        <ele>23.8</ele>
        <time>2026-05-04T13:31:25Z</time>
      </trkpt>
      <trkpt lat="55.654692741581" lon="-5.228806832461">
        <ele>23.8</ele>
        <time>2026-05-04T13:31:26Z</time>
      </trkpt>
      <trkpt lat="55.654623423268" lon="-5.228709434783">
        <ele>23.8</ele>
        <time>2026-05-04T13:31:27Z</time>
      </trkpt>
      <trkpt lat="55.65455452405" lon="-5.228613713485">
        <ele>23.8</ele>
        <time>2026-05-04T13:31:28Z</time>
      </trkpt>
      <trkpt lat="55.654486295384" lon="-5.228518998015">
        <ele>23.8</ele>
        <time>2026-05-04T13:31:29Z</time>
      </trkpt>
      <trkpt lat="55.654418653451" lon="-5.228425204554">
        <ele>23.8</ele>
        <time>2026-05-04T13:31:30Z</time>
      </trkpt>
      <trkpt lat="55.654351430613" lon="-5.228332919835">
        <ele>23.8</ele>
        <time>2026-05-04T13:31:31Z</time>
      </trkpt>
      <trkpt lat="55.654284207775" lon="-5.228243065867">
        <ele>23.8</ele>
        <time>2026-05-04T13:31:32Z</time>
      </trkpt>
      <trkpt lat="55.654217320213" lon="-5.228154553003">
        <ele>23.8</ele>
        <time>2026-05-04T13:31:33Z</time>
      </trkpt>
      <trkpt lat="55.654151019384" lon="-5.228066291596">
        <ele>23.8</ele>
        <time>2026-05-04T13:31:34Z</time>
      </trkpt>
      <trkpt lat="55.654086059659" lon="-5.227976772904">
        <ele>23.8</ele>
        <time>2026-05-04T13:31:35Z</time>
      </trkpt>
      <trkpt lat="55.65402143521" lon="-5.227888343859">
        <ele>23.8</ele>
        <time>2026-05-04T13:31:36Z</time>
      </trkpt>
      <trkpt lat="55.653954296191" lon="-5.2278077938">
        <ele>23.8</ele>
        <time>2026-05-04T13:31:37Z</time>
      </trkpt>
      <trkpt lat="55.653883385317" lon="-5.227739984229">
        <ele>23.8</ele>
        <time>2026-05-04T13:31:38Z</time>
      </trkpt>
      <trkpt lat="55.653809205502" lon="-5.22768625625">
        <ele>23.8</ele>
        <time>2026-05-04T13:31:39Z</time>
      </trkpt>
      <trkpt lat="55.653731337651" lon="-5.227650130261">
        <ele>23.6</ele>
        <time>2026-05-04T13:31:40Z</time>
      </trkpt>
      <trkpt lat="55.653649362669" lon="-5.227638227963">
        <ele>23.2</ele>
        <time>2026-05-04T13:31:41Z</time>
      </trkpt>
      <trkpt lat="55.653566046583" lon="-5.227660523817">
        <ele>23</ele>
        <time>2026-05-04T13:31:42Z</time>
      </trkpt>
      <trkpt lat="55.653486921447" lon="-5.227720370583">
        <ele>22.8</ele>
        <time>2026-05-04T13:31:43Z</time>
      </trkpt>
      <trkpt lat="55.653414166555" lon="-5.227804608678">
        <ele>22.6</ele>
        <time>2026-05-04T13:31:44Z</time>
      </trkpt>
      <trkpt lat="55.653346273165" lon="-5.227902760727">
        <ele>22.6</ele>
        <time>2026-05-04T13:31:45Z</time>
      </trkpt>
      <trkpt lat="55.653281397259" lon="-5.228007618296">
        <ele>22.4</ele>
        <time>2026-05-04T13:31:46Z</time>
      </trkpt>
      <trkpt lat="55.653217275724" lon="-5.228114319883">
        <ele>22.2</ele>
        <time>2026-05-04T13:31:47Z</time>
      </trkpt>
      <trkpt lat="55.65315139399" lon="-5.228217836348">
        <ele>22.2</ele>
        <time>2026-05-04T13:31:48Z</time>
      </trkpt>
      <trkpt lat="55.653079142012" lon="-5.228306600669">
        <ele>22</ele>
        <time>2026-05-04T13:31:49Z</time>
      </trkpt>
      <trkpt lat="55.652999262505" lon="-5.228372314765">
        <ele>22</ele>
        <time>2026-05-04T13:31:50Z</time>
      </trkpt>
      <trkpt lat="55.652913264211" lon="-5.228405171813">
        <ele>21.8</ele>
        <time>2026-05-04T13:31:51Z</time>
      </trkpt>
      <trkpt lat="55.652825421899" lon="-5.228402405786">
        <ele>21.8</ele>
        <time>2026-05-04T13:31:52Z</time>
      </trkpt>
      <trkpt lat="55.652739675062" lon="-5.228372650041">
        <ele>21.8</ele>
        <time>2026-05-04T13:31:53Z</time>
      </trkpt>
      <trkpt lat="55.652657448623" lon="-5.228323615926">
        <ele>21.8</ele>
        <time>2026-05-04T13:31:54Z</time>
      </trkpt>
      <trkpt lat="55.652578826401" lon="-5.228261925142">
        <ele>21.8</ele>
        <time>2026-05-04T13:31:55Z</time>
      </trkpt>
      <trkpt lat="55.652503305482" lon="-5.228192020096">
        <ele>21.8</ele>
        <time>2026-05-04T13:31:56Z</time>
      </trkpt>
      <trkpt lat="55.652429293305" lon="-5.228120019575">
        <ele>21.8</ele>
        <time>2026-05-04T13:31:57Z</time>
      </trkpt>
      <trkpt lat="55.6523542753" lon="-5.228053970203">
        <ele>21.8</ele>
        <time>2026-05-04T13:31:58Z</time>
      </trkpt>
      <trkpt lat="55.652274563431" lon="-5.228012479798">
        <ele>21.8</ele>
        <time>2026-05-04T13:31:59Z</time>
      </trkpt>
      <trkpt lat="55.652192253173" lon="-5.228010803418">
        <ele>21.8</ele>
        <time>2026-05-04T13:32:00Z</time>
      </trkpt>
      <trkpt lat="55.652114469141" lon="-5.228053970203">
        <ele>21.8</ele>
        <time>2026-05-04T13:32:01Z</time>
      </trkpt>
      <trkpt lat="55.652048252131" lon="-5.228136029004">
        <ele>22</ele>
        <time>2026-05-04T13:32:02Z</time>
      </trkpt>
      <trkpt lat="55.6519938536" lon="-5.228240718935">
        <ele>22</ele>
        <time>2026-05-04T13:32:03Z</time>
      </trkpt>
      <trkpt lat="55.651945322399" lon="-5.228352868757">
        <ele>22</ele>
        <time>2026-05-04T13:32:04Z</time>
      </trkpt>
      <trkpt lat="55.651895617732" lon="-5.228461749638">
        <ele>22.2</ele>
        <time>2026-05-04T13:32:05Z</time>
      </trkpt>
      <trkpt lat="55.651835603328" lon="-5.228549927226">
        <ele>22.2</ele>
        <time>2026-05-04T13:32:06Z</time>
      </trkpt>
      <trkpt lat="55.651765111549" lon="-5.228605080128">
        <ele>22.2</ele>
        <time>2026-05-04T13:32:07Z</time>
      </trkpt>
      <trkpt lat="55.65168875244" lon="-5.228619077901">
        <ele>22.2</ele>
        <time>2026-05-04T13:32:08Z</time>
      </trkpt>
      <trkpt lat="55.651612058055" lon="-5.228609773992">
        <ele>22.2</ele>
        <time>2026-05-04T13:32:09Z</time>
      </trkpt>
      <trkpt lat="55.651535698946" lon="-5.228589405975">
        <ele>22.2</ele>
        <time>2026-05-04T13:32:10Z</time>
      </trkpt>
      <trkpt lat="55.651460261846" lon="-5.228558979678">
        <ele>22.4</ele>
        <time>2026-05-04T13:32:11Z</time>
      </trkpt>
      <trkpt lat="55.651385998212" lon="-5.2285202553">
        <ele>22.4</ele>
        <time>2026-05-04T13:32:12Z</time>
      </trkpt>
      <trkpt lat="55.651312991863" lon="-5.228476501782">
        <ele>22.4</ele>
        <time>2026-05-04T13:32:13Z</time>
      </trkpt>
      <trkpt lat="55.651240991342" lon="-5.228430149875">
        <ele>22.4</ele>
        <time>2026-05-04T13:32:14Z</time>
      </trkpt>
      <trkpt lat="55.651170667201" lon="-5.228382037769">
        <ele>22.6</ele>
        <time>2026-05-04T13:32:15Z</time>
      </trkpt>
      <trkpt lat="55.651103025268" lon="-5.228331746369">
        <ele>23</ele>
        <time>2026-05-04T13:32:16Z</time>
      </trkpt>
      <trkpt lat="55.651038317" lon="-5.228278940399">
        <ele>23.2</ele>
        <time>2026-05-04T13:32:17Z</time>
      </trkpt>
      <trkpt lat="55.650976458578" lon="-5.228224541868">
        <ele>23.4</ele>
        <time>2026-05-04T13:32:18Z</time>
      </trkpt>
      <trkpt lat="55.650916947088" lon="-5.228169808061">
        <ele>23.6</ele>
        <time>2026-05-04T13:32:19Z</time>
      </trkpt>
      <trkpt lat="55.650859363435" lon="-5.228115074254">
        <ele>23.8</ele>
        <time>2026-05-04T13:32:20Z</time>
      </trkpt>
      <trkpt lat="55.650803372343" lon="-5.228060424266">
        <ele>24</ele>
        <time>2026-05-04T13:32:21Z</time>
      </trkpt>
      <trkpt lat="55.650748722355" lon="-5.228005439002">
        <ele>24.2</ele>
        <time>2026-05-04T13:32:22Z</time>
      </trkpt>
      <trkpt lat="55.650694994376" lon="-5.227951040471">
        <ele>24.4</ele>
        <time>2026-05-04T13:32:23Z</time>
      </trkpt>
      <trkpt lat="55.650641936949" lon="-5.227897899225">
        <ele>24.6</ele>
        <time>2026-05-04T13:32:24Z</time>
      </trkpt>
      <trkpt lat="55.650589130979" lon="-5.227847272549">
        <ele>24.8</ele>
        <time>2026-05-04T13:32:25Z</time>
      </trkpt>
      <trkpt lat="55.650536408828" lon="-5.2277994119">
        <ele>25</ele>
        <time>2026-05-04T13:32:26Z</time>
      </trkpt>
      <trkpt lat="55.650484105772" lon="-5.227753898183">
        <ele>25.2</ele>
        <time>2026-05-04T13:32:27Z</time>
      </trkpt>
      <trkpt lat="55.650432054173" lon="-5.227710312303">
        <ele>25.4</ele>
        <time>2026-05-04T13:32:28Z</time>
      </trkpt>
      <trkpt lat="55.650380170212" lon="-5.227668067527">
        <ele>25.6</ele>
        <time>2026-05-04T13:32:29Z</time>
      </trkpt>
      <trkpt lat="55.650328453889" lon="-5.227627247674">
        <ele>25.6</ele>
        <time>2026-05-04T13:32:30Z</time>
      </trkpt>
      <trkpt lat="55.650276318471" lon="-5.227589696762">
        <ele>25.8</ele>
        <time>2026-05-04T13:32:31Z</time>
      </trkpt>
      <trkpt lat="55.650222841949" lon="-5.227559605741">
        <ele>26</ele>
        <time>2026-05-04T13:32:32Z</time>
      </trkpt>
      <trkpt lat="55.65016827578" lon="-5.227538231896">
        <ele>26.2</ele>
        <time>2026-05-04T13:32:33Z</time>
      </trkpt>
      <trkpt lat="55.650114296344" lon="-5.227517444784">
        <ele>26.4</ele>
        <time>2026-05-04T13:32:34Z</time>
      </trkpt>
      <trkpt lat="55.650060484546" lon="-5.227497076767">
        <ele>26.4</ele>
        <time>2026-05-04T13:32:35Z</time>
      </trkpt>
      <trkpt lat="55.650005834558" lon="-5.227483498089">
        <ele>26.6</ele>
        <time>2026-05-04T13:32:36Z</time>
      </trkpt>
      <trkpt lat="55.649950011104" lon="-5.227482408442">
        <ele>26.6</ele>
        <time>2026-05-04T13:32:37Z</time>
      </trkpt>
      <trkpt lat="55.649893768555" lon="-5.227494729835">
        <ele>26.6</ele>
        <time>2026-05-04T13:32:38Z</time>
      </trkpt>
      <trkpt lat="55.649838112739" lon="-5.227521384277">
        <ele>26.6</ele>
        <time>2026-05-04T13:32:39Z</time>
      </trkpt>
      <trkpt lat="55.649784552398" lon="-5.227563209958">
        <ele>26.6</ele>
        <time>2026-05-04T13:32:40Z</time>
      </trkpt>
      <trkpt lat="55.649734680093" lon="-5.227620290697">
        <ele>26.6</ele>
        <time>2026-05-04T13:32:41Z</time>
      </trkpt>
      <trkpt lat="55.64968966929" lon="-5.227689776648">
        <ele>26.6</ele>
        <time>2026-05-04T13:32:42Z</time>
      </trkpt>
      <trkpt lat="55.649648262704" lon="-5.227765549024">
        <ele>26.8</ele>
        <time>2026-05-04T13:32:43Z</time>
      </trkpt>
      <trkpt lat="55.649608783955" lon="-5.227843919789">
        <ele>26.8</ele>
        <time>2026-05-04T13:32:44Z</time>
      </trkpt>
      <trkpt lat="55.64957064631" lon="-5.227923631658">
        <ele>27</ele>
        <time>2026-05-04T13:32:45Z</time>
      </trkpt>
      <trkpt lat="55.649533430674" lon="-5.22800393026">
        <ele>27</ele>
        <time>2026-05-04T13:32:46Z</time>
      </trkpt>
      <trkpt lat="55.649496969409" lon="-5.228084899414">
        <ele>27.2</ele>
        <time>2026-05-04T13:32:47Z</time>
      </trkpt>
      <trkpt lat="55.649461178696" lon="-5.228166036206">
        <ele>27.2</ele>
        <time>2026-05-04T13:32:48Z</time>
      </trkpt>
      <trkpt lat="55.649425723259" lon="-5.228247256817">
        <ele>27.4</ele>
        <time>2026-05-04T13:32:49Z</time>
      </trkpt>
      <trkpt lat="55.649390519279" lon="-5.228328561247">
        <ele>27.4</ele>
        <time>2026-05-04T13:32:50Z</time>
      </trkpt>
      <trkpt lat="55.649355482937" lon="-5.228409698039">
        <ele>27.6</ele>
        <time>2026-05-04T13:32:51Z</time>
      </trkpt>
      <trkpt lat="55.649320446595" lon="-5.228490583374">
        <ele>27.6</ele>
        <time>2026-05-04T13:32:52Z</time>
      </trkpt>
      <trkpt lat="55.649284655882" lon="-5.228570379062">
        <ele>27.8</ele>
        <time>2026-05-04T13:32:53Z</time>
      </trkpt>
      <trkpt lat="55.649246350599" lon="-5.228646654352">
        <ele>27.8</ele>
        <time>2026-05-04T13:32:54Z</time>
      </trkpt>
      <trkpt lat="55.64920435728" lon="-5.22871722995">
        <ele>27.8</ele>
        <time>2026-05-04T13:32:55Z</time>
      </trkpt>
      <trkpt lat="55.649158173011" lon="-5.228779675105">
        <ele>28</ele>
        <time>2026-05-04T13:32:56Z</time>
      </trkpt>
      <trkpt lat="55.64910796543" lon="-5.228831391428">
        <ele>28</ele>
        <time>2026-05-04T13:32:57Z</time>
      </trkpt>
      <trkpt lat="55.649054069813" lon="-5.228869529073">
        <ele>28</ele>
        <time>2026-05-04T13:32:58Z</time>
      </trkpt>
      <trkpt lat="55.648997408169" lon="-5.228891489651">
        <ele>28.2</ele>
        <time>2026-05-04T13:32:59Z</time>
      </trkpt>
      <trkpt lat="55.648939321602" lon="-5.22889576442">
        <ele>28.2</ele>
        <time>2026-05-04T13:33:00Z</time>
      </trkpt>
      <trkpt lat="55.648881570311" lon="-5.228882185742">
        <ele>28.2</ele>
        <time>2026-05-04T13:33:01Z</time>
      </trkpt>
      <trkpt lat="55.648825411581" lon="-5.228852094721">
        <ele>28.4</ele>
        <time>2026-05-04T13:33:02Z</time>
      </trkpt>
      <trkpt lat="55.64877185124" lon="-5.228807586832">
        <ele>28.4</ele>
        <time>2026-05-04T13:33:03Z</time>
      </trkpt>
      <trkpt lat="55.648721392202" lon="-5.228750506093">
        <ele>28.4</ele>
        <time>2026-05-04T13:33:04Z</time>
      </trkpt>
      <trkpt lat="55.648674369743" lon="-5.228682696522">
        <ele>28.4</ele>
        <time>2026-05-04T13:33:05Z</time>
      </trkpt>
      <trkpt lat="55.648630867682" lon="-5.228605331585">
        <ele>28.2</ele>
        <time>2026-05-04T13:33:06Z</time>
      </trkpt>
      <trkpt lat="55.648590969838" lon="-5.228518914196">
        <ele>28.2</ele>
        <time>2026-05-04T13:33:07Z</time>
      </trkpt>
      <trkpt lat="55.648555179125" lon="-5.228424450183">
        <ele>28.2</ele>
        <time>2026-05-04T13:33:08Z</time>
      </trkpt>
      <trkpt lat="55.648523327905" lon="-5.228322610098">
        <ele>28</ele>
        <time>2026-05-04T13:33:09Z</time>
      </trkpt>
      <trkpt lat="55.648492901608" lon="-5.228216076149">
        <ele>27.8</ele>
        <time>2026-05-04T13:33:10Z</time>
      </trkpt>
      <trkpt lat="55.648462056216" lon="-5.228106776173">
        <ele>27.8</ele>
        <time>2026-05-04T13:33:11Z</time>
      </trkpt>
      <trkpt lat="55.648430456453" lon="-5.227995464541">
        <ele>27.6</ele>
        <time>2026-05-04T13:33:12Z</time>
      </trkpt>
      <trkpt lat="55.648397264129" lon="-5.227883063262">
        <ele>27.6</ele>
        <time>2026-05-04T13:33:13Z</time>
      </trkpt>
      <trkpt lat="55.648362395425" lon="-5.22777007525">
        <ele>27.4</ele>
        <time>2026-05-04T13:33:14Z</time>
      </trkpt>
      <trkpt lat="55.648326353255" lon="-5.227656249048">
        <ele>27.4</ele>
        <time>2026-05-04T13:33:15Z</time>
      </trkpt>
      <trkpt lat="55.648289389076" lon="-5.227541836113">
        <ele>27.2</ele>
        <time>2026-05-04T13:33:16Z</time>
      </trkpt>
      <trkpt lat="55.64825133525" lon="-5.227427171721">
        <ele>27.2</ele>
        <time>2026-05-04T13:33:17Z</time>
      </trkpt>
      <trkpt lat="55.648212275596" lon="-5.227312255872">
        <ele>27</ele>
        <time>2026-05-04T13:33:18Z</time>
      </trkpt>
      <trkpt lat="55.648171958657" lon="-5.227196920928">
        <ele>26.8</ele>
        <time>2026-05-04T13:33:19Z</time>
      </trkpt>
      <trkpt lat="55.648130552071" lon="-5.227081166889">
        <ele>26.8</ele>
        <time>2026-05-04T13:33:20Z</time>
      </trkpt>
      <trkpt lat="55.648088055838" lon="-5.226964993755">
        <ele>26.6</ele>
        <time>2026-05-04T13:33:21Z</time>
      </trkpt>
      <trkpt lat="55.648044553777" lon="-5.226848233888">
        <ele>26.6</ele>
        <time>2026-05-04T13:33:22Z</time>
      </trkpt>
      <trkpt lat="55.647999459155" lon="-5.226731641659">
        <ele>26.4</ele>
        <time>2026-05-04T13:33:23Z</time>
      </trkpt>
      <trkpt lat="55.647950760316" lon="-5.226618569828">
        <ele>26.4</ele>
        <time>2026-05-04T13:33:24Z</time>
      </trkpt>
      <trkpt lat="55.647897702889" lon="-5.226512371155">
        <ele>26.4</ele>
        <time>2026-05-04T13:33:25Z</time>
      </trkpt>
      <trkpt lat="55.647841041245" lon="-5.226413716192">
        <ele>26.4</ele>
        <time>2026-05-04T13:33:26Z</time>
      </trkpt>
      <trkpt lat="55.647781445936" lon="-5.226323024034">
        <ele>26.4</ele>
        <time>2026-05-04T13:33:27Z</time>
      </trkpt>
      <trkpt lat="55.647719503695" lon="-5.226240965233">
        <ele>26.6</ele>
        <time>2026-05-04T13:33:28Z</time>
      </trkpt>
      <trkpt lat="55.647655717436" lon="-5.226167791246">
        <ele>26.8</ele>
        <time>2026-05-04T13:33:29Z</time>
      </trkpt>
      <trkpt lat="55.647590590073" lon="-5.226103502073">
        <ele>26.8</ele>
        <time>2026-05-04T13:33:30Z</time>
      </trkpt>
      <trkpt lat="55.647524373063" lon="-5.226047846257">
        <ele>27</ele>
        <time>2026-05-04T13:33:31Z</time>
      </trkpt>
      <trkpt lat="55.647457653139" lon="-5.226000739979">
        <ele>27.2</ele>
        <time>2026-05-04T13:33:32Z</time>
      </trkpt>
      <trkpt lat="55.647390765577" lon="-5.225961847963">
        <ele>27.2</ele>
        <time>2026-05-04T13:33:33Z</time>
      </trkpt>
      <trkpt lat="55.64732345892" lon="-5.225930499657">
        <ele>27.4</ele>
        <time>2026-05-04T13:33:34Z</time>
      </trkpt>
      <trkpt lat="55.647256236082" lon="-5.225906527423">
        <ele>27.6</ele>
        <time>2026-05-04T13:33:35Z</time>
      </trkpt>
      <trkpt lat="55.647189264701" lon="-5.22588917689">
        <ele>27.6</ele>
        <time>2026-05-04T13:33:36Z</time>
      </trkpt>
      <trkpt lat="55.647123047691" lon="-5.225872329271">
        <ele>27.8</ele>
        <time>2026-05-04T13:33:37Z</time>
      </trkpt>
      <trkpt lat="55.647058926156" lon="-5.225845842467">
        <ele>27.8</ele>
        <time>2026-05-04T13:33:38Z</time>
      </trkpt>
      <trkpt lat="55.646997654467" lon="-5.225807788641">
        <ele>28</ele>
        <time>2026-05-04T13:33:39Z</time>
      </trkpt>
      <trkpt lat="55.646939484081" lon="-5.225760430906">
        <ele>28.2</ele>
        <time>2026-05-04T13:33:40Z</time>
      </trkpt>
      <trkpt lat="55.64688508555" lon="-5.225704020719">
        <ele>28.2</ele>
        <time>2026-05-04T13:33:41Z</time>
      </trkpt>
      <trkpt lat="55.646835045607" lon="-5.22563939627">
        <ele>28.4</ele>
        <time>2026-05-04T13:33:42Z</time>
      </trkpt>
      <trkpt lat="55.646789112795" lon="-5.225568736853">
        <ele>28.6</ele>
        <time>2026-05-04T13:33:43Z</time>
      </trkpt>
      <trkpt lat="55.646747203295" lon="-5.225493718848">
        <ele>28.6</ele>
        <time>2026-05-04T13:33:44Z</time>
      </trkpt>
      <trkpt lat="55.646708730374" lon="-5.225415180445">
        <ele>28.8</ele>
        <time>2026-05-04T13:33:45Z</time>
      </trkpt>
      <trkpt lat="55.646673610213" lon="-5.225333959834">
        <ele>29</ele>
        <time>2026-05-04T13:33:46Z</time>
      </trkpt>
      <trkpt lat="55.646641507536" lon="-5.225250727567">
        <ele>29</ele>
        <time>2026-05-04T13:33:47Z</time>
      </trkpt>
      <trkpt lat="55.646612170886" lon="-5.225165986558">
        <ele>29.2</ele>
        <time>2026-05-04T13:33:48Z</time>
      </trkpt>
      <trkpt lat="55.646585432625" lon="-5.225080072083">
        <ele>29.2</ele>
        <time>2026-05-04T13:33:49Z</time>
      </trkpt>
      <trkpt lat="55.646560957477" lon="-5.224993319418">
        <ele>29.4</ele>
        <time>2026-05-04T13:33:50Z</time>
      </trkpt>
      <trkpt lat="55.646538745442" lon="-5.224906063839">
        <ele>29.4</ele>
        <time>2026-05-04T13:33:51Z</time>
      </trkpt>
      <trkpt lat="55.646518293606" lon="-5.224818389165">
        <ele>29.6</ele>
        <time>2026-05-04T13:33:52Z</time>
      </trkpt>
      <trkpt lat="55.646499266693" lon="-5.224730463034">
        <ele>29.6</ele>
        <time>2026-05-04T13:33:53Z</time>
      </trkpt>
      <trkpt lat="55.646482083798" lon="-5.224641866351">
        <ele>29.8</ele>
        <time>2026-05-04T13:33:54Z</time>
      </trkpt>
      <trkpt lat="55.646469678586" lon="-5.224551509469">
        <ele>29.8</ele>
        <time>2026-05-04T13:33:55Z</time>
      </trkpt>
      <trkpt lat="55.64646096141" lon="-5.22446006294">
        <ele>29.8</ele>
        <time>2026-05-04T13:33:56Z</time>
      </trkpt>
      <trkpt lat="55.646453585338" lon="-5.224368113497">
        <ele>29.8</ele>
        <time>2026-05-04T13:33:57Z</time>
      </trkpt>
      <trkpt lat="55.646446879818" lon="-5.224275912597">
        <ele>30</ele>
        <time>2026-05-04T13:33:58Z</time>
      </trkpt>
      <trkpt lat="55.646440509574" lon="-5.224183292602">
        <ele>30</ele>
        <time>2026-05-04T13:33:59Z</time>
      </trkpt>
      <trkpt lat="55.646434642244" lon="-5.224089918236">
        <ele>30</ele>
        <time>2026-05-04T13:34:00Z</time>
      </trkpt>
      <trkpt lat="55.646428691095" lon="-5.223995957137">
        <ele>30</ele>
        <time>2026-05-04T13:34:01Z</time>
      </trkpt>
      <trkpt lat="55.6464198901" lon="-5.223902331314">
        <ele>30</ele>
        <time>2026-05-04T13:34:02Z</time>
      </trkpt>
      <trkpt lat="55.64640731725" lon="-5.223809543681">
        <ele>30</ele>
        <time>2026-05-04T13:34:03Z</time>
      </trkpt>
      <trkpt lat="55.64639222983" lon="-5.223717929514">
        <ele>30.2</ele>
        <time>2026-05-04T13:34:04Z</time>
      </trkpt>
      <trkpt lat="55.646374460202" lon="-5.22362774027">
        <ele>30.2</ele>
        <time>2026-05-04T13:34:05Z</time>
      </trkpt>
      <trkpt lat="55.646354176004" lon="-5.223539646501">
        <ele>30.2</ele>
        <time>2026-05-04T13:34:06Z</time>
      </trkpt>
      <trkpt lat="55.64633104196" lon="-5.223454067302">
        <ele>30.2</ele>
        <time>2026-05-04T13:34:07Z</time>
      </trkpt>
      <trkpt lat="55.646304890432" lon="-5.223371757044">
        <ele>30.4</ele>
        <time>2026-05-04T13:34:08Z</time>
      </trkpt>
      <trkpt lat="55.646276056696" lon="-5.223293386279">
        <ele>30.4</ele>
        <time>2026-05-04T13:34:09Z</time>
      </trkpt>
      <trkpt lat="55.646244456933" lon="-5.223219206464">
        <ele>30.4</ele>
        <time>2026-05-04T13:34:10Z</time>
      </trkpt>
      <trkpt lat="55.646210426419" lon="-5.223149385237">
        <ele>30.6</ele>
        <time>2026-05-04T13:34:11Z</time>
      </trkpt>
      <trkpt lat="55.646174216611" lon="-5.223084341693">
        <ele>30.6</ele>
        <time>2026-05-04T13:34:12Z</time>
      </trkpt>
      <trkpt lat="55.646136078966" lon="-5.22302424347">
        <ele>30.8</ele>
        <time>2026-05-04T13:34:13Z</time>
      </trkpt>
      <trkpt lat="55.646095762027" lon="-5.222970264034">
        <ele>30.8</ele>
        <time>2026-05-04T13:34:14Z</time>
      </trkpt>
      <trkpt lat="55.646054774536" lon="-5.222919302082">
        <ele>31</ele>
        <time>2026-05-04T13:34:15Z</time>
      </trkpt>
      <trkpt lat="55.646012194484" lon="-5.222874039822">
        <ele>31.2</ele>
        <time>2026-05-04T13:34:16Z</time>
      </trkpt>
      <trkpt lat="55.645968273328" lon="-5.222834728711">
        <ele>31.2</ele>
        <time>2026-05-04T13:34:17Z</time>
      </trkpt>
      <trkpt lat="55.645924100715" lon="-5.222799105636">
        <ele>31.4</ele>
        <time>2026-05-04T13:34:18Z</time>
      </trkpt>
      <trkpt lat="55.645879676645" lon="-5.22276691914">
        <ele>31.6</ele>
        <time>2026-05-04T13:34:19Z</time>
      </trkpt>
      <trkpt lat="55.645834917299" lon="-5.222738755956">
        <ele>31.6</ele>
        <time>2026-05-04T13:34:20Z</time>
      </trkpt>
      <trkpt lat="55.645790157953" lon="-5.222714699903">
        <ele>31.8</ele>
        <time>2026-05-04T13:34:21Z</time>
      </trkpt>
      <trkpt lat="55.645745650064" lon="-5.222694415705">
        <ele>32</ele>
        <time>2026-05-04T13:34:22Z</time>
      </trkpt>
      <trkpt lat="55.645701477451" lon="-5.222677735724">
        <ele>32.2</ele>
        <time>2026-05-04T13:34:23Z</time>
      </trkpt>
      <trkpt lat="55.645657472476" lon="-5.222664576141">
        <ele>32.2</ele>
        <time>2026-05-04T13:34:24Z</time>
      </trkpt>
      <trkpt lat="55.645613383682" lon="-5.222655188413">
        <ele>32.4</ele>
        <time>2026-05-04T13:34:25Z</time>
      </trkpt>
      <trkpt lat="55.645569043431" lon="-5.222650243092">
        <ele>32.4</ele>
        <time>2026-05-04T13:34:26Z</time>
      </trkpt>
      <trkpt lat="55.645524367904" lon="-5.222650326911">
        <ele>32.6</ele>
        <time>2026-05-04T13:34:27Z</time>
      </trkpt>
      <trkpt lat="55.64547944092" lon="-5.222656110422">
        <ele>32.8</ele>
        <time>2026-05-04T13:34:28Z</time>
      </trkpt>
      <trkpt lat="55.645434597755" lon="-5.222668180358">
        <ele>32.8</ele>
        <time>2026-05-04T13:34:29Z</time>
      </trkpt>
      <trkpt lat="55.64538975459" lon="-5.222687374909">
        <ele>32.8</ele>
        <time>2026-05-04T13:34:30Z</time>
      </trkpt>
      <trkpt lat="55.64534533052" lon="-5.222714364627">
        <ele>33</ele>
        <time>2026-05-04T13:34:31Z</time>
      </trkpt>
      <trkpt lat="55.64530174464" lon="-5.222749736245">
        <ele>33</ele>
        <time>2026-05-04T13:34:32Z</time>
      </trkpt>
      <trkpt lat="55.645259499864" lon="-5.22279374122">
        <ele>33</ele>
        <time>2026-05-04T13:34:33Z</time>
      </trkpt>
      <trkpt lat="55.645218847649" lon="-5.222846798647">
        <ele>33</ele>
        <time>2026-05-04T13:34:34Z</time>
      </trkpt>
      <trkpt lat="55.64518020709" lon="-5.222908908526">
        <ele>33</ele>
        <time>2026-05-04T13:34:35Z</time>
      </trkpt>
      <trkpt lat="55.64514332673" lon="-5.222979316486">
        <ele>32.8</ele>
        <time>2026-05-04T13:34:36Z</time>
      </trkpt>
      <trkpt lat="55.645107871293" lon="-5.223056765242">
        <ele>32.8</ele>
        <time>2026-05-04T13:34:37Z</time>
      </trkpt>
      <trkpt lat="55.645073337865" lon="-5.223139326957">
        <ele>32.8</ele>
        <time>2026-05-04T13:34:38Z</time>
      </trkpt>
      <trkpt lat="55.645038301523" lon="-5.223225241432">
        <ele>32.6</ele>
        <time>2026-05-04T13:34:39Z</time>
      </trkpt>
      <trkpt lat="55.645001337344" lon="-5.223312832287">
        <ele>32.4</ele>
        <time>2026-05-04T13:34:40Z</time>
      </trkpt>
      <trkpt lat="55.644962026233" lon="-5.223401680427">
        <ele>32.4</ele>
        <time>2026-05-04T13:34:41Z</time>
      </trkpt>
      <trkpt lat="55.644921122561" lon="-5.223493713689">
        <ele>32</ele>
        <time>2026-05-04T13:34:42Z</time>
      </trkpt>
      <trkpt lat="55.644876614672" lon="-5.223586585141">
        <ele>31.8</ele>
        <time>2026-05-04T13:34:43Z</time>
      </trkpt>
      <trkpt lat="55.644822970512" lon="-5.223671577607">
        <ele>31.4</ele>
        <time>2026-05-04T13:34:44Z</time>
      </trkpt>
      <trkpt lat="55.644755915312" lon="-5.22373335221">
        <ele>31</ele>
        <time>2026-05-04T13:34:45Z</time>
      </trkpt>
      <trkpt lat="55.644676371081" lon="-5.223744583956">
        <ele>30.4</ele>
        <time>2026-05-04T13:34:46Z</time>
      </trkpt>
      <trkpt lat="55.644596994488" lon="-5.223695968936">
        <ele>30</ele>
        <time>2026-05-04T13:34:47Z</time>
      </trkpt>
      <trkpt lat="55.644533543505" lon="-5.223591111367">
        <ele>29.6</ele>
        <time>2026-05-04T13:34:48Z</time>
      </trkpt>
      <trkpt lat="55.644494148575" lon="-5.223447697058">
        <ele>29.2</ele>
        <time>2026-05-04T13:34:49Z</time>
      </trkpt>
      <trkpt lat="55.644468751418" lon="-5.223290201157">
        <ele>28.8</ele>
        <time>2026-05-04T13:34:50Z</time>
      </trkpt>
      <trkpt lat="55.64444595265" lon="-5.223128430487">
        <ele>28.4</ele>
        <time>2026-05-04T13:34:51Z</time>
      </trkpt>
      <trkpt lat="55.644411419222" lon="-5.222971521319">
        <ele>28</ele>
        <time>2026-05-04T13:34:52Z</time>
      </trkpt>
      <trkpt lat="55.644353248836" lon="-5.222836153634">
        <ele>27.8</ele>
        <time>2026-05-04T13:34:53Z</time>
      </trkpt>
      <trkpt lat="55.644281332134" lon="-5.222721824518">
        <ele>27.6</ele>
        <time>2026-05-04T13:34:54Z</time>
      </trkpt>
      <trkpt lat="55.644198518962" lon="-5.222637251147">
        <ele>27.6</ele>
        <time>2026-05-04T13:34:55Z</time>
      </trkpt>
      <trkpt lat="55.644108245899" lon="-5.222591905068">
        <ele>27.8</ele>
        <time>2026-05-04T13:34:56Z</time>
      </trkpt>
      <trkpt lat="55.644016883189" lon="-5.222569022481">
        <ele>27.8</ele>
        <time>2026-05-04T13:34:57Z</time>
      </trkpt>
      <trkpt lat="55.643926693945" lon="-5.222543792962">
        <ele>27.8</ele>
        <time>2026-05-04T13:34:58Z</time>
      </trkpt>
      <trkpt lat="55.643840947108" lon="-5.222492328096">
        <ele>27.8</ele>
        <time>2026-05-04T13:34:59Z</time>
      </trkpt>
      <trkpt lat="55.643764587999" lon="-5.222408676734">
        <ele>27.8</ele>
        <time>2026-05-04T13:35:00Z</time>
      </trkpt>
      <trkpt lat="55.643705495604" lon="-5.222290324306">
        <ele>27.8</ele>
        <time>2026-05-04T13:35:01Z</time>
      </trkpt>
      <trkpt lat="55.643667106502" lon="-5.222147915825">
        <ele>27.8</ele>
        <time>2026-05-04T13:35:02Z</time>
      </trkpt>
      <trkpt lat="55.643629220314" lon="-5.222005758801">
        <ele>27.8</ele>
        <time>2026-05-04T13:35:03Z</time>
      </trkpt>
      <trkpt lat="55.643567780987" lon="-5.221894782445">
        <ele>27.8</ele>
        <time>2026-05-04T13:35:04Z</time>
      </trkpt>
      <trkpt lat="55.643489326403" lon="-5.221825967046">
        <ele>27.8</ele>
        <time>2026-05-04T13:35:05Z</time>
      </trkpt>
      <trkpt lat="55.643403998661" lon="-5.221794115826">
        <ele>27.8</ele>
        <time>2026-05-04T13:35:06Z</time>
      </trkpt>
      <trkpt lat="55.643317329815" lon="-5.221794870197">
        <ele>27.8</ele>
        <time>2026-05-04T13:35:07Z</time>
      </trkpt>
      <trkpt lat="55.643234935738" lon="-5.221840300095">
        <ele>27.8</ele>
        <time>2026-05-04T13:35:08Z</time>
      </trkpt>
      <trkpt lat="55.643164946873" lon="-5.22192872914">
        <ele>27.8</ele>
        <time>2026-05-04T13:35:09Z</time>
      </trkpt>
      <trkpt lat="55.643109793971" lon="-5.222045321369">
        <ele>27.8</ele>
        <time>2026-05-04T13:35:10Z</time>
      </trkpt>
      <trkpt lat="55.643054724888" lon="-5.222161159227">
        <ele>27.8</ele>
        <time>2026-05-04T13:35:11Z</time>
      </trkpt>
      <trkpt lat="55.642977862865" lon="-5.222223352925">
        <ele>27.8</ele>
        <time>2026-05-04T13:35:12Z</time>
      </trkpt>
      <trkpt lat="55.642893289494" lon="-5.222236261051">
        <ele>27.8</ele>
        <time>2026-05-04T13:35:13Z</time>
      </trkpt>
      <trkpt lat="55.642808716123" lon="-5.222230393721">
        <ele>27.8</ele>
        <time>2026-05-04T13:35:14Z</time>
      </trkpt>
      <trkpt lat="55.642724729485" lon="-5.222218407604">
        <ele>27.8</ele>
        <time>2026-05-04T13:35:15Z</time>
      </trkpt>
      <trkpt lat="55.642641078123" lon="-5.222205164202">
        <ele>27.8</ele>
        <time>2026-05-04T13:35:16Z</time>
      </trkpt>
      <trkpt lat="55.642557678218" lon="-5.222190914972">
        <ele>27.8</ele>
        <time>2026-05-04T13:35:17Z</time>
      </trkpt>
      <trkpt lat="55.64247452977" lon="-5.222175827552">
        <ele>27.8</ele>
        <time>2026-05-04T13:35:18Z</time>
      </trkpt>
      <trkpt lat="55.642391297503" lon="-5.222169038213">
        <ele>27.8</ele>
        <time>2026-05-04T13:35:19Z</time>
      </trkpt>
      <trkpt lat="55.642309071064" lon="-5.222190663515">
        <ele>27.6</ele>
        <time>2026-05-04T13:35:20Z</time>
      </trkpt>
      <trkpt lat="55.642228856281" lon="-5.222229555531">
        <ele>27.6</ele>
        <time>2026-05-04T13:35:21Z</time>
      </trkpt>
      <trkpt lat="55.642150066421" lon="-5.222274147239">
        <ele>27.8</ele>
        <time>2026-05-04T13:35:22Z</time>
      </trkpt>
      <trkpt lat="55.642073204398" lon="-5.222322762259">
        <ele>27.8</ele>
        <time>2026-05-04T13:35:23Z</time>
      </trkpt>
      <trkpt lat="55.641998605488" lon="-5.222373640392">
        <ele>28</ele>
        <time>2026-05-04T13:35:24Z</time>
      </trkpt>
      <trkpt lat="55.641924341854" lon="-5.222421920136">
        <ele>28</ele>
        <time>2026-05-04T13:35:25Z</time>
      </trkpt>
      <trkpt lat="55.641849407668" lon="-5.222463913455">
        <ele>28</ele>
        <time>2026-05-04T13:35:26Z</time>
      </trkpt>
      <trkpt lat="55.64177464112" lon="-5.222502470195">
        <ele>28.2</ele>
        <time>2026-05-04T13:35:27Z</time>
      </trkpt>
      <trkpt lat="55.641700712762" lon="-5.222536919804">
        <ele>28.4</ele>
        <time>2026-05-04T13:35:28Z</time>
      </trkpt>
      <trkpt lat="55.641628041689" lon="-5.222566927006">
        <ele>28.4</ele>
        <time>2026-05-04T13:35:29Z</time>
      </trkpt>
      <trkpt lat="55.641556544082" lon="-5.222593749086">
        <ele>28.6</ele>
        <time>2026-05-04T13:35:30Z</time>
      </trkpt>
      <trkpt lat="55.64148630376" lon="-5.222618391872">
        <ele>28.8</ele>
        <time>2026-05-04T13:35:31Z</time>
      </trkpt>
      <trkpt lat="55.641417236904" lon="-5.222641442097">
        <ele>29</ele>
        <time>2026-05-04T13:35:32Z</time>
      </trkpt>
      <trkpt lat="55.641349427333" lon="-5.222663235037">
        <ele>29.2</ele>
        <time>2026-05-04T13:35:33Z</time>
      </trkpt>
      <trkpt lat="55.641282707409" lon="-5.222683854511">
        <ele>29.4</ele>
        <time>2026-05-04T13:35:34Z</time>
      </trkpt>
      <trkpt lat="55.641216993313" lon="-5.222703300519">
        <ele>29.6</ele>
        <time>2026-05-04T13:35:35Z</time>
      </trkpt>
      <trkpt lat="55.641152536502" lon="-5.222721824518">
        <ele>29.8</ele>
        <time>2026-05-04T13:35:36Z</time>
      </trkpt>
      <trkpt lat="55.641089420795" lon="-5.22273925887">
        <ele>30</ele>
        <time>2026-05-04T13:35:37Z</time>
      </trkpt>
      <trkpt lat="55.641027730011" lon="-5.222755771213">
        <ele>30.2</ele>
        <time>2026-05-04T13:35:38Z</time>
      </trkpt>
      <trkpt lat="55.640967212693" lon="-5.222771361547">
        <ele>30.4</ele>
        <time>2026-05-04T13:35:39Z</time>
      </trkpt>
      <trkpt lat="55.640908036479" lon="-5.222786029872">
        <ele>30.6</ele>
        <time>2026-05-04T13:35:40Z</time>
      </trkpt>
      <trkpt lat="55.640850033731" lon="-5.222799943826">
        <ele>30.8</ele>
        <time>2026-05-04T13:35:41Z</time>
      </trkpt>
      <trkpt lat="55.640793288268" lon="-5.222813103409">
        <ele>31</ele>
        <time>2026-05-04T13:35:42Z</time>
      </trkpt>
      <trkpt lat="55.640737548633" lon="-5.222825676259">
        <ele>31.2</ele>
        <time>2026-05-04T13:35:43Z</time>
      </trkpt>
      <trkpt lat="55.640683066283" lon="-5.222837746195">
        <ele>31.4</ele>
        <time>2026-05-04T13:35:44Z</time>
      </trkpt>
      <trkpt lat="55.640629757399" lon="-5.222849480855">
        <ele>31.6</ele>
        <time>2026-05-04T13:35:45Z</time>
      </trkpt>
      <trkpt lat="55.640577454343" lon="-5.22286079642">
        <ele>31.8</ele>
        <time>2026-05-04T13:35:46Z</time>
      </trkpt>
      <trkpt lat="55.640526240934" lon="-5.222871860528">
        <ele>32</ele>
        <time>2026-05-04T13:35:47Z</time>
      </trkpt>
      <trkpt lat="55.640476033353" lon="-5.222882002627">
        <ele>32.2</ele>
        <time>2026-05-04T13:35:48Z</time>
      </trkpt>
      <trkpt lat="55.6404268316" lon="-5.222891474174">
        <ele>32.4</ele>
        <time>2026-05-04T13:35:49Z</time>
      </trkpt>
      <trkpt lat="55.640378300399" lon="-5.222900778083">
        <ele>32.6</ele>
        <time>2026-05-04T13:35:50Z</time>
      </trkpt>
      <trkpt lat="55.640330355931" lon="-5.222910417268">
        <ele>32.8</ele>
        <time>2026-05-04T13:35:51Z</time>
      </trkpt>
      <trkpt lat="55.640283249653" lon="-5.22292282248">
        <ele>33</ele>
        <time>2026-05-04T13:35:52Z</time>
      </trkpt>
      <trkpt lat="55.640236478651" lon="-5.222935646787">
        <ele>33.2</ele>
        <time>2026-05-04T13:35:53Z</time>
      </trkpt>
      <trkpt lat="55.640189959106" lon="-5.222946543257">
        <ele>33.4</ele>
        <time>2026-05-04T13:35:54Z</time>
      </trkpt>
      <trkpt lat="55.640143607199" lon="-5.222955344252">
        <ele>33.6</ele>
        <time>2026-05-04T13:35:55Z</time>
      </trkpt>
      <trkpt lat="55.640097255292" lon="-5.222963642333">
        <ele>33.6</ele>
        <time>2026-05-04T13:35:56Z</time>
      </trkpt>
      <trkpt lat="55.640051071023" lon="-5.222971940414">
        <ele>33.8</ele>
        <time>2026-05-04T13:35:57Z</time>
      </trkpt>
      <trkpt lat="55.64000522203" lon="-5.222980406133">
        <ele>34</ele>
        <time>2026-05-04T13:35:58Z</time>
      </trkpt>
      <trkpt lat="55.639959792132" lon="-5.222989961499">
        <ele>34.2</ele>
        <time>2026-05-04T13:35:59Z</time>
      </trkpt>
      <trkpt lat="55.639914613691" lon="-5.223000355055">
        <ele>34.4</ele>
        <time>2026-05-04T13:36:00Z</time>
      </trkpt>
      <trkpt lat="55.639869519069" lon="-5.223011251525">
        <ele>34.6</ele>
        <time>2026-05-04T13:36:01Z</time>
      </trkpt>
      <trkpt lat="55.639824592085" lon="-5.223022147995">
        <ele>34.6</ele>
        <time>2026-05-04T13:36:02Z</time>
      </trkpt>
      <trkpt lat="55.639779916558" lon="-5.223032960646">
        <ele>34.8</ele>
        <time>2026-05-04T13:36:03Z</time>
      </trkpt>
      <trkpt lat="55.639735576307" lon="-5.223043689478">
        <ele>35</ele>
        <time>2026-05-04T13:36:04Z</time>
      </trkpt>
      <trkpt lat="55.639690984599" lon="-5.223054502129">
        <ele>35</ele>
        <time>2026-05-04T13:36:05Z</time>
      </trkpt>
      <trkpt lat="55.639646225253" lon="-5.22306531478">
        <ele>35.2</ele>
        <time>2026-05-04T13:36:06Z</time>
      </trkpt>
      <trkpt lat="55.63960121445" lon="-5.223075792155">
        <ele>35.4</ele>
        <time>2026-05-04T13:36:07Z</time>
      </trkpt>
      <trkpt lat="55.63955595219" lon="-5.22308543134">
        <ele>35.4</ele>
        <time>2026-05-04T13:36:08Z</time>
      </trkpt>
      <trkpt lat="55.639510354654" lon="-5.223094316154">
        <ele>35.6</ele>
        <time>2026-05-04T13:36:09Z</time>
      </trkpt>
      <trkpt lat="55.639464254204" lon="-5.223102698054">
        <ele>35.6</ele>
        <time>2026-05-04T13:36:10Z</time>
      </trkpt>
      <trkpt lat="55.63941765084" lon="-5.223110325583">
        <ele>35.8</ele>
        <time>2026-05-04T13:36:11Z</time>
      </trkpt>
      <trkpt lat="55.63936987401" lon="-5.223117031103">
        <ele>35.8</ele>
        <time>2026-05-04T13:36:12Z</time>
      </trkpt>
      <trkpt lat="55.639320085524" lon="-5.223122730795">
        <ele>35.8</ele>
        <time>2026-05-04T13:36:13Z</time>
      </trkpt>
      <trkpt lat="55.639268117744" lon="-5.22312734084">
        <ele>35.8</ele>
        <time>2026-05-04T13:36:14Z</time>
      </trkpt>
      <trkpt lat="55.639213719213" lon="-5.223131112695">
        <ele>35.8</ele>
        <time>2026-05-04T13:36:15Z</time>
      </trkpt>
      <trkpt lat="55.639157225207" lon="-5.223133962541">
        <ele>35.8</ele>
        <time>2026-05-04T13:36:16Z</time>
      </trkpt>
      <trkpt lat="55.639099390097" lon="-5.223135638921">
        <ele>35.8</ele>
        <time>2026-05-04T13:36:17Z</time>
      </trkpt>
      <trkpt lat="55.639040716797" lon="-5.223133711084">
        <ele>35.8</ele>
        <time>2026-05-04T13:36:18Z</time>
      </trkpt>
      <trkpt lat="55.638982043497" lon="-5.223129352496">
        <ele>35.8</ele>
        <time>2026-05-04T13:36:19Z</time>
      </trkpt>
      <trkpt lat="55.63892311874" lon="-5.223124910089">
        <ele>35.8</ele>
        <time>2026-05-04T13:36:20Z</time>
      </trkpt>
      <trkpt lat="55.638863439612" lon="-5.2231223117">
        <ele>35.8</ele>
        <time>2026-05-04T13:36:21Z</time>
      </trkpt>
      <trkpt lat="55.638803089932" lon="-5.223122730795">
        <ele>35.8</ele>
        <time>2026-05-04T13:36:22Z</time>
      </trkpt>
      <trkpt lat="55.638741650605" lon="-5.223124993908">
        <ele>35.8</ele>
        <time>2026-05-04T13:36:23Z</time>
      </trkpt>
      <trkpt lat="55.638678870174" lon="-5.223127843754">
        <ele>35.8</ele>
        <time>2026-05-04T13:36:24Z</time>
      </trkpt>
      <trkpt lat="55.638614916277" lon="-5.223130861238">
        <ele>35.8</ele>
        <time>2026-05-04T13:36:25Z</time>
      </trkpt>
      <trkpt lat="55.638549872733" lon="-5.223133878722">
        <ele>35.8</ele>
        <time>2026-05-04T13:36:26Z</time>
      </trkpt>
      <trkpt lat="55.63848390718" lon="-5.223137315301">
        <ele>35.8</ele>
        <time>2026-05-04T13:36:27Z</time>
      </trkpt>
      <trkpt lat="55.638418193084" lon="-5.223153911463">
        <ele>35.8</ele>
        <time>2026-05-04T13:36:28Z</time>
      </trkpt>
      <trkpt lat="55.638356083205" lon="-5.223196407696">
        <ele>35.8</ele>
        <time>2026-05-04T13:36:29Z</time>
      </trkpt>
      <trkpt lat="55.638300092113" lon="-5.223261954154">
        <ele>35.8</ele>
        <time>2026-05-04T13:36:30Z</time>
      </trkpt>
      <trkpt lat="55.638252231464" lon="-5.223346359887">
        <ele>35.8</ele>
        <time>2026-05-04T13:36:31Z</time>
      </trkpt>
      <trkpt lat="55.638214261457" lon="-5.223446020678">
        <ele>35.8</ele>
        <time>2026-05-04T13:36:32Z</time>
      </trkpt>
      <trkpt lat="55.638187774653" lon="-5.22355733231">
        <ele>35.8</ele>
        <time>2026-05-04T13:36:33Z</time>
      </trkpt>
      <trkpt lat="55.638173860699" lon="-5.223676439109">
        <ele>35.8</ele>
        <time>2026-05-04T13:36:34Z</time>
      </trkpt>
      <trkpt lat="55.638170172663" lon="-5.22379873103">
        <ele>35.8</ele>
        <time>2026-05-04T13:36:35Z</time>
      </trkpt>
      <trkpt lat="55.638171513767" lon="-5.22392194496">
        <ele>35.8</ele>
        <time>2026-05-04T13:36:36Z</time>
      </trkpt>
      <trkpt lat="55.638175117984" lon="-5.224045745623">
        <ele>35.8</ele>
        <time>2026-05-04T13:36:37Z</time>
      </trkpt>
      <trkpt lat="55.638179560391" lon="-5.2241700492">
        <ele>35.8</ele>
        <time>2026-05-04T13:36:38Z</time>
      </trkpt>
      <trkpt lat="55.638184589531" lon="-5.22429493951">
        <ele>35.8</ele>
        <time>2026-05-04T13:36:39Z</time>
      </trkpt>
      <trkpt lat="55.638189031938" lon="-5.22442066801">
        <ele>35.8</ele>
        <time>2026-05-04T13:36:40Z</time>
      </trkpt>
      <trkpt lat="55.638191965603" lon="-5.224547569976">
        <ele>35.8</ele>
        <time>2026-05-04T13:36:41Z</time>
      </trkpt>
      <trkpt lat="55.638193139069" lon="-5.224675393951">
        <ele>35.8</ele>
        <time>2026-05-04T13:36:42Z</time>
      </trkpt>
      <trkpt lat="55.6381888643" lon="-5.224803804659">
        <ele>35.8</ele>
        <time>2026-05-04T13:36:43Z</time>
      </trkpt>
      <trkpt lat="55.63817712964" lon="-5.224931377177">
        <ele>35.8</ele>
        <time>2026-05-04T13:36:44Z</time>
      </trkpt>
      <trkpt lat="55.63815701308" lon="-5.225055848392">
        <ele>35.8</ele>
        <time>2026-05-04T13:36:45Z</time>
      </trkpt>
      <trkpt lat="55.638126586783" lon="-5.225173614087">
        <ele>35.8</ele>
        <time>2026-05-04T13:36:46Z</time>
      </trkpt>
      <trkpt lat="55.638089287328" lon="-5.225284758081">
        <ele>35.8</ele>
        <time>2026-05-04T13:36:47Z</time>
      </trkpt>
      <trkpt lat="55.638045952905" lon="-5.225387436356">
        <ele>35.8</ele>
        <time>2026-05-04T13:36:48Z</time>
      </trkpt>
      <trkpt lat="55.637997254066" lon="-5.225480391627">
        <ele>36</ele>
        <time>2026-05-04T13:36:49Z</time>
      </trkpt>
      <trkpt lat="55.637944531915" lon="-5.22556312098">
        <ele>36.2</ele>
        <time>2026-05-04T13:36:50Z</time>
      </trkpt>
      <trkpt lat="55.63788963047" lon="-5.225638474261">
        <ele>36.2</ele>
        <time>2026-05-04T13:36:51Z</time>
      </trkpt>
      <trkpt lat="55.637833807016" lon="-5.225710307144">
        <ele>36.4</ele>
        <time>2026-05-04T13:36:52Z</time>
      </trkpt>
      <trkpt lat="55.63777731301" lon="-5.225779960733">
        <ele>36.4</ele>
        <time>2026-05-04T13:36:53Z</time>
      </trkpt>
      <trkpt lat="55.637720483728" lon="-5.225848021761">
        <ele>36.6</ele>
        <time>2026-05-04T13:36:54Z</time>
      </trkpt>
      <trkpt lat="55.637663822084" lon="-5.225915244599">
        <ele>36.6</ele>
        <time>2026-05-04T13:36:55Z</time>
      </trkpt>
      <trkpt lat="55.637607411897" lon="-5.225982132161">
        <ele>36.8</ele>
        <time>2026-05-04T13:36:56Z</time>
      </trkpt>
      <trkpt lat="55.637551923719" lon="-5.226050612284">
        <ele>37</ele>
        <time>2026-05-04T13:36:57Z</time>
      </trkpt>
      <trkpt lat="55.637498614835" lon="-5.226123450995">
        <ele>37</ele>
        <time>2026-05-04T13:36:58Z</time>
      </trkpt>
      <trkpt lat="55.637447485245" lon="-5.226199558647">
        <ele>37.2</ele>
        <time>2026-05-04T13:36:59Z</time>
      </trkpt>
      <trkpt lat="55.63739761294" lon="-5.22627725886">
        <ele>37.2</ele>
        <time>2026-05-04T13:37:00Z</time>
      </trkpt>
      <trkpt lat="55.637348830282" lon="-5.22635604872">
        <ele>37.4</ele>
        <time>2026-05-04T13:37:01Z</time>
      </trkpt>
      <trkpt lat="55.637301891642" lon="-5.226437017874">
        <ele>37.6</ele>
        <time>2026-05-04T13:37:02Z</time>
      </trkpt>
      <trkpt lat="55.637260065961" lon="-5.226525446919">
        <ele>37.6</ele>
        <time>2026-05-04T13:37:03Z</time>
      </trkpt>
      <trkpt lat="55.637225448714" lon="-5.226622676959">
        <ele>37.8</ele>
        <time>2026-05-04T13:37:04Z</time>
      </trkpt>
      <trkpt lat="55.637197453168" lon="-5.226726612519">
        <ele>37.8</ele>
        <time>2026-05-04T13:37:05Z</time>
      </trkpt>
      <trkpt lat="55.637173900029" lon="-5.226834236115">
        <ele>37.8</ele>
        <time>2026-05-04T13:37:06Z</time>
      </trkpt>
      <trkpt lat="55.637151939451" lon="-5.226943368453">
        <ele>37.8</ele>
        <time>2026-05-04T13:37:07Z</time>
      </trkpt>
      <trkpt lat="55.637128470131" lon="-5.227052165515">
        <ele>37.8</ele>
        <time>2026-05-04T13:37:08Z</time>
      </trkpt>
      <trkpt lat="55.637097205644" lon="-5.227155095247">
        <ele>38</ele>
        <time>2026-05-04T13:37:09Z</time>
      </trkpt>
      <trkpt lat="55.637058648904" lon="-5.22725039745">
        <ele>38</ele>
        <time>2026-05-04T13:37:10Z</time>
      </trkpt>
      <trkpt lat="55.637016152671" lon="-5.227340502875">
        <ele>38</ele>
        <time>2026-05-04T13:37:11Z</time>
      </trkpt>
      <trkpt lat="55.636970806592" lon="-5.22742641735">
        <ele>38</ele>
        <time>2026-05-04T13:37:12Z</time>
      </trkpt>
      <trkpt lat="55.636923281219" lon="-5.227508979065">
        <ele>38</ele>
        <time>2026-05-04T13:37:13Z</time>
      </trkpt>
      <trkpt lat="55.636874330923" lon="-5.227589361486">
        <ele>38</ele>
        <time>2026-05-04T13:37:14Z</time>
      </trkpt>
      <trkpt lat="55.636824542437" lon="-5.227668989536">
        <ele>38</ele>
        <time>2026-05-04T13:37:15Z</time>
      </trkpt>
      <trkpt lat="55.636774502494" lon="-5.227748869043">
        <ele>38</ele>
        <time>2026-05-04T13:37:16Z</time>
      </trkpt>
      <trkpt lat="55.636724294913" lon="-5.227829419102">
        <ele>38</ele>
        <time>2026-05-04T13:37:17Z</time>
      </trkpt>
      <trkpt lat="55.636676266626" lon="-5.227914411568">
        <ele>38</ele>
        <time>2026-05-04T13:37:18Z</time>
      </trkpt>
      <trkpt lat="55.636632094013" lon="-5.228006193373">
        <ele>38</ele>
        <time>2026-05-04T13:37:19Z</time>
      </trkpt>
      <trkpt lat="55.636592447626" lon="-5.228104345422">
        <ele>38</ele>
        <time>2026-05-04T13:37:20Z</time>
      </trkpt>
      <trkpt lat="55.636558249474" lon="-5.228208867715">
        <ele>38</ele>
        <time>2026-05-04T13:37:21Z</time>
      </trkpt>
      <trkpt lat="55.636530421566" lon="-5.228319592614">
        <ele>38</ele>
        <time>2026-05-04T13:37:22Z</time>
      </trkpt>
      <trkpt lat="55.636509299178" lon="-5.228435765748">
        <ele>38</ele>
        <time>2026-05-04T13:37:23Z</time>
      </trkpt>
      <trkpt lat="55.636494463215" lon="-5.228556800384">
        <ele>37.8</ele>
        <time>2026-05-04T13:37:24Z</time>
      </trkpt>
      <trkpt lat="55.636484488754" lon="-5.22868202597">
        <ele>37.6</ele>
        <time>2026-05-04T13:37:25Z</time>
      </trkpt>
      <trkpt lat="55.636476609768" lon="-5.228810520497">
        <ele>37.4</ele>
        <time>2026-05-04T13:37:26Z</time>
      </trkpt>
      <trkpt lat="55.636469317515" lon="-5.228941948689">
        <ele>37.2</ele>
        <time>2026-05-04T13:37:27Z</time>
      </trkpt>
      <trkpt lat="55.636461941443" lon="-5.229075807632">
        <ele>37</ele>
        <time>2026-05-04T13:37:28Z</time>
      </trkpt>
      <trkpt lat="55.636454900647" lon="-5.229212181145">
        <ele>36.8</ele>
        <time>2026-05-04T13:37:29Z</time>
      </trkpt>
      <trkpt lat="55.63644878186" lon="-5.22935090159">
        <ele>36.6</ele>
        <time>2026-05-04T13:37:30Z</time>
      </trkpt>
      <trkpt lat="55.636443585082" lon="-5.229491968967">
        <ele>36.4</ele>
        <time>2026-05-04T13:37:31Z</time>
      </trkpt>
      <trkpt lat="55.636440148503" lon="-5.229634964181">
        <ele>36.4</ele>
        <time>2026-05-04T13:37:32Z</time>
      </trkpt>
      <trkpt lat="55.636440483779" lon="-5.229779551956">
        <ele>36.2</ele>
        <time>2026-05-04T13:37:33Z</time>
      </trkpt>
      <trkpt lat="55.636447273118" lon="-5.229924558826">
        <ele>36</ele>
        <time>2026-05-04T13:37:34Z</time>
      </trkpt>
      <trkpt lat="55.636462528176" lon="-5.230068140773">
        <ele>36</ele>
        <time>2026-05-04T13:37:35Z</time>
      </trkpt>
      <trkpt lat="55.636488009152" lon="-5.230207112675">
        <ele>35.8</ele>
        <time>2026-05-04T13:37:36Z</time>
      </trkpt>
      <trkpt lat="55.636525476245" lon="-5.230337032125">
        <ele>35.8</ele>
        <time>2026-05-04T13:37:37Z</time>
      </trkpt>
      <trkpt lat="55.636576270559" lon="-5.230451612698">
        <ele>35.8</ele>
        <time>2026-05-04T13:37:38Z</time>
      </trkpt>
      <trkpt lat="55.636639553904" lon="-5.23054364596">
        <ele>35.8</ele>
        <time>2026-05-04T13:37:39Z</time>
      </trkpt>
      <trkpt lat="55.636711554425" lon="-5.230609527694">
        <ele>35.8</ele>
        <time>2026-05-04T13:37:40Z</time>
      </trkpt>
      <trkpt lat="55.636789338457" lon="-5.230642887656">
        <ele>36</ele>
        <time>2026-05-04T13:37:41Z</time>
      </trkpt>
      <trkpt lat="55.636868044498" lon="-5.230634338118">
        <ele>36</ele>
        <time>2026-05-04T13:37:42Z</time>
      </trkpt>
      <trkpt lat="55.636941553761" lon="-5.230589327315">
        <ele>36.2</ele>
        <time>2026-05-04T13:37:43Z</time>
      </trkpt>
      <trkpt lat="55.637009447151" lon="-5.230526965979">
        <ele>36.2</ele>
        <time>2026-05-04T13:37:44Z</time>
      </trkpt>
      <trkpt lat="55.637075496523" lon="-5.230463514996">
        <ele>36.4</ele>
        <time>2026-05-04T13:37:45Z</time>
      </trkpt>
      <trkpt lat="55.637145820664" lon="-5.230429149206">
        <ele>36.6</ele>
        <time>2026-05-04T13:37:46Z</time>
      </trkpt>
      <trkpt lat="55.637216312443" lon="-5.230446164463">
        <ele>36.8</ele>
        <time>2026-05-04T13:37:47Z</time>
      </trkpt>
      <trkpt lat="55.637277165037" lon="-5.230506346505">
        <ele>37</ele>
        <time>2026-05-04T13:37:48Z</time>
      </trkpt>
      <trkpt lat="55.637319745089" lon="-5.230600978156">
        <ele>37.2</ele>
        <time>2026-05-04T13:37:49Z</time>
      </trkpt>
      <trkpt lat="55.637343549685" lon="-5.230711954512">
        <ele>37.4</ele>
        <time>2026-05-04T13:37:50Z</time>
      </trkpt>
      <trkpt lat="55.637355619621" lon="-5.230827289456">
        <ele>37.6</ele>
        <time>2026-05-04T13:37:51Z</time>
      </trkpt>
      <trkpt lat="55.63736240896" lon="-5.230943043495">
        <ele>37.6</ele>
        <time>2026-05-04T13:37:52Z</time>
      </trkpt>
      <trkpt lat="55.637368611566" lon="-5.231057959344">
        <ele>37.8</ele>
        <time>2026-05-04T13:37:53Z</time>
      </trkpt>
      <trkpt lat="55.637377244923" lon="-5.231171617908">
        <ele>38</ele>
        <time>2026-05-04T13:37:54Z</time>
      </trkpt>
      <trkpt lat="55.637394176361" lon="-5.231281504617">
        <ele>38</ele>
        <time>2026-05-04T13:37:55Z</time>
      </trkpt>
      <trkpt lat="55.637423177735" lon="-5.231382422693">
        <ele>38.2</ele>
        <time>2026-05-04T13:37:56Z</time>
      </trkpt>
      <trkpt lat="55.637466009244" lon="-5.231466157874">
        <ele>38.2</ele>
        <time>2026-05-04T13:37:57Z</time>
      </trkpt>
      <trkpt lat="55.63751998868" lon="-5.231525753183">
        <ele>38.4</ele>
        <time>2026-05-04T13:37:58Z</time>
      </trkpt>
      <trkpt lat="55.637580757455" lon="-5.231561040982">
        <ele>38.4</ele>
        <time>2026-05-04T13:37:59Z</time>
      </trkpt>
      <trkpt lat="55.637644543714" lon="-5.231577218049">
        <ele>38.4</ele>
        <time>2026-05-04T13:38:00Z</time>
      </trkpt>
      <trkpt lat="55.637709587258" lon="-5.231578475334">
        <ele>38.4</ele>
        <time>2026-05-04T13:38:01Z</time>
      </trkpt>
      <trkpt lat="55.637774714621" lon="-5.231569339063">
        <ele>38.6</ele>
        <time>2026-05-04T13:38:02Z</time>
      </trkpt>
      <trkpt lat="55.637840009622" lon="-5.23155366491">
        <ele>38.6</ele>
        <time>2026-05-04T13:38:03Z</time>
      </trkpt>
      <trkpt lat="55.637905472261" lon="-5.231537571662">
        <ele>38.6</ele>
        <time>2026-05-04T13:38:04Z</time>
      </trkpt>
      <trkpt lat="55.637971521633" lon="-5.231534470359">
        <ele>38.6</ele>
        <time>2026-05-04T13:38:05Z</time>
      </trkpt>
      <trkpt lat="55.638036732815" lon="-5.231550647426">
        <ele>38.8</ele>
        <time>2026-05-04T13:38:06Z</time>
      </trkpt>
      <trkpt lat="55.638098842694" lon="-5.231585683768">
        <ele>38.8</ele>
        <time>2026-05-04T13:38:07Z</time>
      </trkpt>
      <trkpt lat="55.638155923433" lon="-5.231638070643">
        <ele>39</ele>
        <time>2026-05-04T13:38:08Z</time>
      </trkpt>
      <trkpt lat="55.638207220661" lon="-5.231704790567">
        <ele>39.2</ele>
        <time>2026-05-04T13:38:09Z</time>
      </trkpt>
      <trkpt lat="55.638252902016" lon="-5.231782155504">
        <ele>39.4</ele>
        <time>2026-05-04T13:38:10Z</time>
      </trkpt>
      <trkpt lat="55.638293805688" lon="-5.231867064151">
        <ele>39.4</ele>
        <time>2026-05-04T13:38:11Z</time>
      </trkpt>
      <trkpt lat="55.638330853686" lon="-5.231957421033">
        <ele>39.4</ele>
        <time>2026-05-04T13:38:12Z</time>
      </trkpt>
      <trkpt lat="55.6383648842" lon="-5.232051633589">
        <ele>39.6</ele>
        <time>2026-05-04T13:38:13Z</time>
      </trkpt>
      <trkpt lat="55.638396819239" lon="-5.232148863629">
        <ele>39.6</ele>
        <time>2026-05-04T13:38:14Z</time>
      </trkpt>
      <trkpt lat="55.638427161717" lon="-5.232248692058">
        <ele>39.6</ele>
        <time>2026-05-04T13:38:15Z</time>
      </trkpt>
      <trkpt lat="55.638457168919" lon="-5.232350196867">
        <ele>39.6</ele>
        <time>2026-05-04T13:38:16Z</time>
      </trkpt>
      <trkpt lat="55.638487008483" lon="-5.232453545694">
        <ele>39.6</ele>
        <time>2026-05-04T13:38:17Z</time>
      </trkpt>
      <trkpt lat="55.638514417296" lon="-5.232560834014">
        <ele>39.6</ele>
        <time>2026-05-04T13:38:18Z</time>
      </trkpt>
      <trkpt lat="55.638536294055" lon="-5.232673402931">
        <ele>39.6</ele>
        <time>2026-05-04T13:38:19Z</time>
      </trkpt>
      <trkpt lat="55.638551549113" lon="-5.232790414255">
        <ele>39.6</ele>
        <time>2026-05-04T13:38:20Z</time>
      </trkpt>
      <trkpt lat="55.638558925185" lon="-5.232910443063">
        <ele>39.6</ele>
        <time>2026-05-04T13:38:21Z</time>
      </trkpt>
      <trkpt lat="55.638557081167" lon="-5.233031645337">
        <ele>39.6</ele>
        <time>2026-05-04T13:38:22Z</time>
      </trkpt>
      <trkpt lat="55.638544424498" lon="-5.233151003593">
        <ele>39.6</ele>
        <time>2026-05-04T13:38:23Z</time>
      </trkpt>
      <trkpt lat="55.638519027341" lon="-5.233264159243">
        <ele>39.6</ele>
        <time>2026-05-04T13:38:24Z</time>
      </trkpt>
      <trkpt lat="55.638480889696" lon="-5.233365999328">
        <ele>39.6</ele>
        <time>2026-05-04T13:38:25Z</time>
      </trkpt>
      <trkpt lat="55.638431352667" lon="-5.233451662346">
        <ele>39.6</ele>
        <time>2026-05-04T13:38:26Z</time>
      </trkpt>
      <trkpt lat="55.63837242791" lon="-5.233517627899">
        <ele>39.6</ele>
        <time>2026-05-04T13:38:27Z</time>
      </trkpt>
      <trkpt lat="55.638309898936" lon="-5.233563057797">
        <ele>39.6</ele>
        <time>2026-05-04T13:38:28Z</time>
      </trkpt>
      <trkpt lat="55.638237982234" lon="-5.233594489922">
        <ele>39.4</ele>
        <time>2026-05-04T13:38:29Z</time>
      </trkpt>
      <trkpt lat="55.638166316989" lon="-5.233609158247">
        <ele>39.4</ele>
        <time>2026-05-04T13:38:30Z</time>
      </trkpt>
      <trkpt lat="55.638095992848" lon="-5.233612762464">
        <ele>39.4</ele>
        <time>2026-05-04T13:38:31Z</time>
      </trkpt>
      <trkpt lat="55.638021477757" lon="-5.233614103568">
        <ele>39.2</ele>
        <time>2026-05-04T13:38:32Z</time>
      </trkpt>
      <trkpt lat="55.637945873019" lon="-5.233620054717">
        <ele>39.2</ele>
        <time>2026-05-04T13:38:33Z</time>
      </trkpt>
      <trkpt lat="55.637869262453" lon="-5.233635561232">
        <ele>39</ele>
        <time>2026-05-04T13:38:34Z</time>
      </trkpt>
      <trkpt lat="55.637791310783" lon="-5.233658108543">
        <ele>39</ele>
        <time>2026-05-04T13:38:35Z</time>
      </trkpt>
      <trkpt lat="55.637712353285" lon="-5.233686523184">
        <ele>38.8</ele>
        <time>2026-05-04T13:38:36Z</time>
      </trkpt>
      <trkpt lat="55.637632557597" lon="-5.233718290585">
        <ele>38.6</ele>
        <time>2026-05-04T13:38:37Z</time>
      </trkpt>
      <trkpt lat="55.637551923719" lon="-5.2337505609">
        <ele>38.6</ele>
        <time>2026-05-04T13:38:38Z</time>
      </trkpt>
      <trkpt lat="55.637470284013" lon="-5.233778975541">
        <ele>38.6</ele>
        <time>2026-05-04T13:38:39Z</time>
      </trkpt>
      <trkpt lat="55.637387387022" lon="-5.233798924463">
        <ele>38.6</ele>
        <time>2026-05-04T13:38:40Z</time>
      </trkpt>
      <trkpt lat="55.637304070936" lon="-5.233810826761">
        <ele>38.6</ele>
        <time>2026-05-04T13:38:41Z</time>
      </trkpt>
      <trkpt lat="55.637220671031" lon="-5.233816442634">
        <ele>38.6</ele>
        <time>2026-05-04T13:38:42Z</time>
      </trkpt>
      <trkpt lat="55.637137522583" lon="-5.233817197005">
        <ele>38.8</ele>
        <time>2026-05-04T13:38:43Z</time>
      </trkpt>
      <trkpt lat="55.637054877049" lon="-5.233813760426">
        <ele>38.8</ele>
        <time>2026-05-04T13:38:44Z</time>
      </trkpt>
      <trkpt lat="55.636973069705" lon="-5.233806803449">
        <ele>38.8</ele>
        <time>2026-05-04T13:38:45Z</time>
      </trkpt>
      <trkpt lat="55.636892016732" lon="-5.233797415721">
        <ele>39</ele>
        <time>2026-05-04T13:38:46Z</time>
      </trkpt>
      <trkpt lat="55.63681171813" lon="-5.233785848699">
        <ele>39</ele>
        <time>2026-05-04T13:38:47Z</time>
      </trkpt>
      <trkpt lat="55.636732341537" lon="-5.23377235384">
        <ele>39.2</ele>
        <time>2026-05-04T13:38:48Z</time>
      </trkpt>
      <trkpt lat="55.636653970772" lon="-5.233759361895">
        <ele>39.2</ele>
        <time>2026-05-04T13:38:49Z</time>
      </trkpt>
      <trkpt lat="55.63657618674" lon="-5.233761373551">
        <ele>39.4</ele>
        <time>2026-05-04T13:38:50Z</time>
      </trkpt>
      <trkpt lat="55.636500330545" lon="-5.233787022165">
        <ele>39.4</ele>
        <time>2026-05-04T13:38:51Z</time>
      </trkpt>
      <trkpt lat="55.636428749119" lon="-5.233835469547">
        <ele>39.4</ele>
        <time>2026-05-04T13:38:52Z</time>
      </trkpt>
      <trkpt lat="55.636363705575" lon="-5.233905290774">
        <ele>39.6</ele>
        <time>2026-05-04T13:38:53Z</time>
      </trkpt>
      <trkpt lat="55.636306876293" lon="-5.233993216905">
        <ele>39.6</ele>
        <time>2026-05-04T13:38:54Z</time>
      </trkpt>
      <trkpt lat="55.636258596549" lon="-5.234094637895">
        <ele>39.8</ele>
        <time>2026-05-04T13:38:55Z</time>
      </trkpt>
      <trkpt lat="55.636217944334" lon="-5.234205195156">
        <ele>39.8</ele>
        <time>2026-05-04T13:38:56Z</time>
      </trkpt>
      <trkpt lat="55.636183830001" lon="-5.234321535928">
        <ele>39.8</ele>
        <time>2026-05-04T13:38:57Z</time>
      </trkpt>
      <trkpt lat="55.636156085912" lon="-5.234442235288">
        <ele>40</ele>
        <time>2026-05-04T13:38:58Z</time>
      </trkpt>
      <trkpt lat="55.63613362242" lon="-5.23456528158">
        <ele>40</ele>
        <time>2026-05-04T13:38:59Z</time>
      </trkpt>
      <trkpt lat="55.636115349878" lon="-5.234689166062">
        <ele>40.2</ele>
        <time>2026-05-04T13:39:00Z</time>
      </trkpt>
      <trkpt lat="55.636100346277" lon="-5.234813134363">
        <ele>40.2</ele>
        <time>2026-05-04T13:39:01Z</time>
      </trkpt>
      <trkpt lat="55.636088024884" lon="-5.234936851207">
        <ele>40.4</ele>
        <time>2026-05-04T13:39:02Z</time>
      </trkpt>
      <trkpt lat="55.636077715147" lon="-5.235059562223">
        <ele>40.4</ele>
        <time>2026-05-04T13:39:03Z</time>
      </trkpt>
      <trkpt lat="55.636068997971" lon="-5.235181015954">
        <ele>40.6</ele>
        <time>2026-05-04T13:39:04Z</time>
      </trkpt>
      <trkpt lat="55.636061286623" lon="-5.235300877124">
        <ele>40.6</ele>
        <time>2026-05-04T13:39:05Z</time>
      </trkpt>
      <trkpt lat="55.63605399437" lon="-5.235418978095">
        <ele>40.8</ele>
        <time>2026-05-04T13:39:06Z</time>
      </trkpt>
      <trkpt lat="55.636047037393" lon="-5.235534983591">
        <ele>41</ele>
        <time>2026-05-04T13:39:07Z</time>
      </trkpt>
      <trkpt lat="55.636040080416" lon="-5.235648642155">
        <ele>41.2</ele>
        <time>2026-05-04T13:39:08Z</time>
      </trkpt>
      <trkpt lat="55.636033374896" lon="-5.235760037606">
        <ele>41.4</ele>
        <time>2026-05-04T13:39:09Z</time>
      </trkpt>
      <trkpt lat="55.636027256109" lon="-5.235869756677">
        <ele>41.4</ele>
        <time>2026-05-04T13:39:10Z</time>
      </trkpt>
      <trkpt lat="55.636021975512" lon="-5.235977799368">
        <ele>41.6</ele>
        <time>2026-05-04T13:39:11Z</time>
      </trkpt>
      <trkpt lat="55.636017700743" lon="-5.236084417136">
        <ele>41.8</ele>
        <time>2026-05-04T13:39:12Z</time>
      </trkpt>
      <trkpt lat="55.636014515621" lon="-5.236189609981">
        <ele>42</ele>
        <time>2026-05-04T13:39:13Z</time>
      </trkpt>
      <trkpt lat="55.636012420146" lon="-5.236293545541">
        <ele>42.2</ele>
        <time>2026-05-04T13:39:14Z</time>
      </trkpt>
      <trkpt lat="55.636011665775" lon="-5.236396307635">
        <ele>42.2</ele>
        <time>2026-05-04T13:39:15Z</time>
      </trkpt>
      <trkpt lat="55.636012503965" lon="-5.23649814772">
        <ele>42.4</ele>
        <time>2026-05-04T13:39:16Z</time>
      </trkpt>
      <trkpt lat="55.636015102354" lon="-5.236598898158">
        <ele>42.6</ele>
        <time>2026-05-04T13:39:17Z</time>
      </trkpt>
      <trkpt lat="55.636019796218" lon="-5.236698307492">
        <ele>42.8</ele>
        <time>2026-05-04T13:39:18Z</time>
      </trkpt>
      <trkpt lat="55.636026669376" lon="-5.236796291903">
        <ele>43</ele>
        <time>2026-05-04T13:39:19Z</time>
      </trkpt>
      <trkpt lat="55.636036140923" lon="-5.236892599934">
        <ele>43</ele>
        <time>2026-05-04T13:39:20Z</time>
      </trkpt>
      <trkpt lat="55.636048378497" lon="-5.236986896309">
        <ele>43.2</ele>
        <time>2026-05-04T13:39:21Z</time>
      </trkpt>
      <trkpt lat="55.636063801193" lon="-5.237078426657">
        <ele>43.4</ele>
        <time>2026-05-04T13:39:22Z</time>
      </trkpt>
      <trkpt lat="55.636083163382" lon="-5.237166604245">
        <ele>43.6</ele>
        <time>2026-05-04T13:39:23Z</time>
      </trkpt>
      <trkpt lat="55.636107219435" lon="-5.237250339426">
        <ele>43.8</ele>
        <time>2026-05-04T13:39:24Z</time>
      </trkpt>
      <trkpt lat="55.636136556085" lon="-5.23732795582">
        <ele>43.8</ele>
        <time>2026-05-04T13:39:25Z</time>
      </trkpt>
      <trkpt lat="55.636171927703" lon="-5.237396603581">
        <ele>44</ele>
        <time>2026-05-04T13:39:26Z</time>
      </trkpt>
      <trkpt lat="55.636213418108" lon="-5.237452929949">
        <ele>44.2</ele>
        <time>2026-05-04T13:39:27Z</time>
      </trkpt>
      <trkpt lat="55.636259937653" lon="-5.237495677639">
        <ele>44.2</ele>
        <time>2026-05-04T13:39:28Z</time>
      </trkpt>
      <trkpt lat="55.636309893777" lon="-5.237525265746">
        <ele>44.4</ele>
        <time>2026-05-04T13:39:29Z</time>
      </trkpt>
      <trkpt lat="55.636362280652" lon="-5.237541191356">
        <ele>44.6</ele>
        <time>2026-05-04T13:39:30Z</time>
      </trkpt>
      <trkpt lat="55.636415673355" lon="-5.237544376478">
        <ele>44.6</ele>
        <time>2026-05-04T13:39:31Z</time>
      </trkpt>
      <trkpt lat="55.636469066058" lon="-5.237536748949">
        <ele>44.6</ele>
        <time>2026-05-04T13:39:32Z</time>
      </trkpt>
      <trkpt lat="55.636522374942" lon="-5.237523421728">
        <ele>44.8</ele>
        <time>2026-05-04T13:39:33Z</time>
      </trkpt>
      <trkpt lat="55.636576019102" lon="-5.237509088679">
        <ele>44.8</ele>
        <time>2026-05-04T13:39:34Z</time>
      </trkpt>
      <trkpt lat="55.636630249995" lon="-5.237496264372">
        <ele>44.8</ele>
        <time>2026-05-04T13:39:35Z</time>
      </trkpt>
      <trkpt lat="55.636684899983" lon="-5.237487295739">
        <ele>45</ele>
        <time>2026-05-04T13:39:36Z</time>
      </trkpt>
      <trkpt lat="55.636739885247" lon="-5.237480590219">
        <ele>45</ele>
        <time>2026-05-04T13:39:37Z</time>
      </trkpt>
      <trkpt lat="55.636795121968" lon="-5.237478327106">
        <ele>45</ele>
        <time>2026-05-04T13:39:38Z</time>
      </trkpt>
      <trkpt lat="55.636850610146" lon="-5.237478997658">
        <ele>45.2</ele>
        <time>2026-05-04T13:39:39Z</time>
      </trkpt>
      <trkpt lat="55.636906265962" lon="-5.237483104789">
        <ele>45.2</ele>
        <time>2026-05-04T13:39:40Z</time>
      </trkpt>
      <trkpt lat="55.636962005597" lon="-5.237490229404">
        <ele>45.4</ele>
        <time>2026-05-04T13:39:41Z</time>
      </trkpt>
      <trkpt lat="55.637017829051" lon="-5.237501293512">
        <ele>45.4</ele>
        <time>2026-05-04T13:39:42Z</time>
      </trkpt>
      <trkpt lat="55.637073317229" lon="-5.237517302941">
        <ele>45.6</ele>
        <time>2026-05-04T13:39:43Z</time>
      </trkpt>
      <trkpt lat="55.637128386312" lon="-5.23753750332">
        <ele>45.6</ele>
        <time>2026-05-04T13:39:44Z</time>
      </trkpt>
      <trkpt lat="55.637183120119" lon="-5.237561056459">
        <ele>45.8</ele>
        <time>2026-05-04T13:39:45Z</time>
      </trkpt>
      <trkpt lat="55.637237351012" lon="-5.237587543263">
        <ele>46</ele>
        <time>2026-05-04T13:39:46Z</time>
      </trkpt>
      <trkpt lat="55.637291078991" lon="-5.237616963732">
        <ele>46</ele>
        <time>2026-05-04T13:39:47Z</time>
      </trkpt>
      <trkpt lat="55.637344052599" lon="-5.237649485504">
        <ele>46.2</ele>
        <time>2026-05-04T13:39:48Z</time>
      </trkpt>
      <trkpt lat="55.637396020379" lon="-5.237684773303">
        <ele>46.2</ele>
        <time>2026-05-04T13:39:49Z</time>
      </trkpt>
      <trkpt lat="55.637446730874" lon="-5.23772274331">
        <ele>46.4</ele>
        <time>2026-05-04T13:39:50Z</time>
      </trkpt>
      <trkpt lat="55.637496603179" lon="-5.237763311706">
        <ele>46.6</ele>
        <time>2026-05-04T13:39:51Z</time>
      </trkpt>
      <trkpt lat="55.637545469656" lon="-5.23780656231">
        <ele>46.6</ele>
        <time>2026-05-04T13:39:52Z</time>
      </trkpt>
      <trkpt lat="55.637593246486" lon="-5.237852327484">
        <ele>46.8</ele>
        <time>2026-05-04T13:39:53Z</time>
      </trkpt>
      <trkpt lat="55.637640017488" lon="-5.23790043959">
        <ele>47</ele>
        <time>2026-05-04T13:39:54Z</time>
      </trkpt>
      <trkpt lat="55.637685866481" lon="-5.237951066266">
        <ele>47</ele>
        <time>2026-05-04T13:39:55Z</time>
      </trkpt>
      <trkpt lat="55.637730793465" lon="-5.238004291331">
        <ele>47.2</ele>
        <time>2026-05-04T13:39:56Z</time>
      </trkpt>
      <trkpt lat="55.637774630802" lon="-5.238059779509">
        <ele>47.4</ele>
        <time>2026-05-04T13:39:57Z</time>
      </trkpt>
      <trkpt lat="55.637817294673" lon="-5.238117363162">
        <ele>47.4</ele>
        <time>2026-05-04T13:39:58Z</time>
      </trkpt>
      <trkpt lat="55.637858868897" lon="-5.238177545204">
        <ele>47.6</ele>
        <time>2026-05-04T13:39:59Z</time>
      </trkpt>
      <trkpt lat="55.637899437293" lon="-5.238240577092">
        <ele>47.8</ele>
        <time>2026-05-04T13:40:00Z</time>
      </trkpt>
      <trkpt lat="55.637938832223" lon="-5.238307129378">
        <ele>48</ele>
        <time>2026-05-04T13:40:01Z</time>
      </trkpt>
      <trkpt lat="55.637977556601" lon="-5.238376196234">
        <ele>48.2</ele>
        <time>2026-05-04T13:40:02Z</time>
      </trkpt>
      <trkpt lat="55.638015610427" lon="-5.238447945298">
        <ele>48.2</ele>
        <time>2026-05-04T13:40:03Z</time>
      </trkpt>
      <trkpt lat="55.638052574606" lon="-5.238522208932">
        <ele>48.4</ele>
        <time>2026-05-04T13:40:04Z</time>
      </trkpt>
      <trkpt lat="55.638088030043" lon="-5.238599070955">
        <ele>48.6</ele>
        <time>2026-05-04T13:40:05Z</time>
      </trkpt>
      <trkpt lat="55.638121222367" lon="-5.238678866643">
        <ele>48.8</ele>
        <time>2026-05-04T13:40:06Z</time>
      </trkpt>
      <trkpt lat="55.63815030756" lon="-5.238762853281">
        <ele>49</ele>
        <time>2026-05-04T13:40:07Z</time>
      </trkpt>
      <trkpt lat="55.63817461507" lon="-5.238850025041">
        <ele>49.2</ele>
        <time>2026-05-04T13:40:08Z</time>
      </trkpt>
      <trkpt lat="55.638194647811" lon="-5.238939040819">
        <ele>49.2</ele>
        <time>2026-05-04T13:40:09Z</time>
      </trkpt>
      <trkpt lat="55.638209399955" lon="-5.23903031971">
        <ele>49.4</ele>
        <time>2026-05-04T13:40:10Z</time>
      </trkpt>
      <trkpt lat="55.638218703864" lon="-5.239122688248">
        <ele>49.6</ele>
        <time>2026-05-04T13:40:11Z</time>
      </trkpt>
      <trkpt lat="55.63822323009" lon="-5.239216146433">
        <ele>49.8</ele>
        <time>2026-05-04T13:40:12Z</time>
      </trkpt>
      <trkpt lat="55.638223146271" lon="-5.239310526627">
        <ele>49.8</ele>
        <time>2026-05-04T13:40:13Z</time>
      </trkpt>
      <trkpt lat="55.63821987733" lon="-5.239405577373">
        <ele>50</ele>
        <time>2026-05-04T13:40:14Z</time>
      </trkpt>
      <trkpt lat="55.63821652457" lon="-5.239501717766">
        <ele>50</ele>
        <time>2026-05-04T13:40:15Z</time>
      </trkpt>
      <trkpt lat="55.638221972805" lon="-5.239597858159">
        <ele>50.2</ele>
        <time>2026-05-04T13:40:16Z</time>
      </trkpt>
      <trkpt lat="55.63824083208" lon="-5.239688047403">
        <ele>50.4</ele>
        <time>2026-05-04T13:40:17Z</time>
      </trkpt>
      <trkpt lat="55.638270001092" lon="-5.239767591634">
        <ele>50.6</ele>
        <time>2026-05-04T13:40:18Z</time>
      </trkpt>
      <trkpt lat="55.638305540348" lon="-5.239836239395">
        <ele>50.8</ele>
        <time>2026-05-04T13:40:19Z</time>
      </trkpt>
      <trkpt lat="55.638343510355" lon="-5.239897175808">
        <ele>51</ele>
        <time>2026-05-04T13:40:20Z</time>
      </trkpt>
      <trkpt lat="55.638381983276" lon="-5.239953837452">
        <ele>51.2</ele>
        <time>2026-05-04T13:40:21Z</time>
      </trkpt>
      <trkpt lat="55.638420540016" lon="-5.24000764925">
        <ele>51.4</ele>
        <time>2026-05-04T13:40:22Z</time>
      </trkpt>
      <trkpt lat="55.638458929118" lon="-5.240058275926">
        <ele>51.6</ele>
        <time>2026-05-04T13:40:23Z</time>
      </trkpt>
      <trkpt lat="55.638497234401" lon="-5.240104795471">
        <ele>51.6</ele>
        <time>2026-05-04T13:40:24Z</time>
      </trkpt>
      <trkpt lat="55.638536126417" lon="-5.240147543161">
        <ele>51.8</ele>
        <time>2026-05-04T13:40:25Z</time>
      </trkpt>
      <trkpt lat="55.63857610808" lon="-5.240187357186">
        <ele>52</ele>
        <time>2026-05-04T13:40:26Z</time>
      </trkpt>
      <trkpt lat="55.638616760295" lon="-5.24022474046">
        <ele>52</ele>
        <time>2026-05-04T13:40:27Z</time>
      </trkpt>
      <trkpt lat="55.638658334519" lon="-5.240259692983">
        <ele>52.2</ele>
        <time>2026-05-04T13:40:28Z</time>
      </trkpt>
      <trkpt lat="55.638700663114" lon="-5.240292047117">
        <ele>52.2</ele>
        <time>2026-05-04T13:40:29Z</time>
      </trkpt>
      <trkpt lat="55.638743410804" lon="-5.240321635224">
        <ele>52.4</ele>
        <time>2026-05-04T13:40:30Z</time>
      </trkpt>
      <trkpt lat="55.638786409951" lon="-5.240348876399">
        <ele>52.4</ele>
        <time>2026-05-04T13:40:31Z</time>
      </trkpt>
      <trkpt lat="55.638829325279" lon="-5.240373519185">
        <ele>52.6</ele>
        <time>2026-05-04T13:40:32Z</time>
      </trkpt>
      <trkpt lat="55.638872492064" lon="-5.240394138659">
        <ele>52.6</ele>
        <time>2026-05-04T13:40:33Z</time>
      </trkpt>
      <trkpt lat="55.638916497039" lon="-5.240410064269">
        <ele>52.8</ele>
        <time>2026-05-04T13:40:34Z</time>
      </trkpt>
      <trkpt lat="55.638961507842" lon="-5.240421296015">
        <ele>53</ele>
        <time>2026-05-04T13:40:35Z</time>
      </trkpt>
      <trkpt lat="55.639007524473" lon="-5.240428504449">
        <ele>53</ele>
        <time>2026-05-04T13:40:36Z</time>
      </trkpt>
      <trkpt lat="55.639054127837" lon="-5.240432276304">
        <ele>53.2</ele>
        <time>2026-05-04T13:40:37Z</time>
      </trkpt>
      <trkpt lat="55.639101150296" lon="-5.24043344977">
        <ele>53.2</ele>
        <time>2026-05-04T13:40:38Z</time>
      </trkpt>
      <trkpt lat="55.639148172755" lon="-5.240432779218">
        <ele>53.4</ele>
        <time>2026-05-04T13:40:39Z</time>
      </trkpt>
      <trkpt lat="55.639195446671" lon="-5.240431270476">
        <ele>53.4</ele>
        <time>2026-05-04T13:40:40Z</time>
      </trkpt>
      <trkpt lat="55.639243223501" lon="-5.240429510277">
        <ele>53.6</ele>
        <time>2026-05-04T13:40:41Z</time>
      </trkpt>
      <trkpt lat="55.639291503245" lon="-5.240427833897">
        <ele>53.6</ele>
        <time>2026-05-04T13:40:42Z</time>
      </trkpt>
      <trkpt lat="55.639340369722" lon="-5.240426073698">
        <ele>53.8</ele>
        <time>2026-05-04T13:40:43Z</time>
      </trkpt>
      <trkpt lat="55.639390242027" lon="-5.240423978223">
        <ele>53.8</ele>
        <time>2026-05-04T13:40:44Z</time>
      </trkpt>
      <trkpt lat="55.639441036341" lon="-5.240418949083">
        <ele>53.8</ele>
        <time>2026-05-04T13:40:45Z</time>
      </trkpt>
      <trkpt lat="55.639493004121" lon="-5.240409896631">
        <ele>53.8</ele>
        <time>2026-05-04T13:40:46Z</time>
      </trkpt>
      <trkpt lat="55.639546229186" lon="-5.240397910514">
        <ele>53.8</ele>
        <time>2026-05-04T13:40:47Z</time>
      </trkpt>
      <trkpt lat="55.63960037626" lon="-5.240384415655">
        <ele>53.8</ele>
        <time>2026-05-04T13:40:48Z</time>
      </trkpt>
      <trkpt lat="55.639654188058" lon="-5.240370836977">
        <ele>53.8</ele>
        <time>2026-05-04T13:40:49Z</time>
      </trkpt>
      <trkpt lat="55.639708670408" lon="-5.240357425937">
        <ele>53.8</ele>
        <time>2026-05-04T13:40:50Z</time>
      </trkpt>
      <trkpt lat="55.639764829138" lon="-5.240348373485">
        <ele>53.6</ele>
        <time>2026-05-04T13:40:51Z</time>
      </trkpt>
      <trkpt lat="55.639822245153" lon="-5.240348624942">
        <ele>53.6</ele>
        <time>2026-05-04T13:40:52Z</time>
      </trkpt>
      <trkpt lat="55.639880247901" lon="-5.240352648254">
        <ele>53.6</ele>
        <time>2026-05-04T13:40:53Z</time>
      </trkpt>
      <trkpt lat="55.639938585925" lon="-5.240357509756">
        <ele>53.6</ele>
        <time>2026-05-04T13:40:54Z</time>
      </trkpt>
      <trkpt lat="55.639997175406" lon="-5.240366981303">
        <ele>53.6</ele>
        <time>2026-05-04T13:40:55Z</time>
      </trkpt>
      <trkpt lat="55.640055345792" lon="-5.240388774243">
        <ele>53.6</ele>
        <time>2026-05-04T13:40:56Z</time>
      </trkpt>
      <trkpt lat="55.640109744323" lon="-5.240434036503">
        <ele>53.6</ele>
        <time>2026-05-04T13:40:57Z</time>
      </trkpt>
      <trkpt lat="55.640151486185" lon="-5.240512407268">
        <ele>53.6</ele>
        <time>2026-05-04T13:40:58Z</time>
      </trkpt>
      <trkpt lat="55.640186773984" lon="-5.24060276415">
        <ele>53.6</ele>
        <time>2026-05-04T13:40:59Z</time>
      </trkpt>
      <trkpt lat="55.640227593837" lon="-5.240687169883">
        <ele>53.6</ele>
        <time>2026-05-04T13:41:00Z</time>
      </trkpt>
      <trkpt lat="55.640279226341" lon="-5.240753973626">
        <ele>53.6</ele>
        <time>2026-05-04T13:41:01Z</time>
      </trkpt>
      <trkpt lat="55.640338486374" lon="-5.240799654981">
        <ele>53.6</ele>
        <time>2026-05-04T13:41:02Z</time>
      </trkpt>
      <trkpt lat="55.64040252409" lon="-5.240822453749">
        <ele>53.6</ele>
        <time>2026-05-04T13:41:03Z</time>
      </trkpt>
      <trkpt lat="55.640468322005" lon="-5.24082153174">
        <ele>53.6</ele>
        <time>2026-05-04T13:41:04Z</time>
      </trkpt>
      <trkpt lat="55.64053328173" lon="-5.240797140411">
        <ele>53.6</ele>
        <time>2026-05-04T13:41:05Z</time>
      </trkpt>
      <trkpt lat="55.640594637238" lon="-5.240749028305">
        <ele>53.6</ele>
        <time>2026-05-04T13:41:06Z</time>
      </trkpt>
      <trkpt lat="55.640648449036" lon="-5.240675770499">
        <ele>53.6</ele>
        <time>2026-05-04T13:41:07Z</time>
      </trkpt>
      <trkpt lat="55.640690777631" lon="-5.240580300658">
        <ele>53.6</ele>
        <time>2026-05-04T13:41:08Z</time>
      </trkpt>
      <trkpt lat="55.640719695186" lon="-5.240469072845">
        <ele>53.6</ele>
        <time>2026-05-04T13:41:09Z</time>
      </trkpt>
      <trkpt lat="55.640735956072" lon="-5.24034879258">
        <ele>53.6</ele>
        <time>2026-05-04T13:41:10Z</time>
      </trkpt>
      <trkpt lat="55.640744337972" lon="-5.240224908098">
        <ele>53.6</ele>
        <time>2026-05-04T13:41:11Z</time>
      </trkpt>
      <trkpt lat="55.640765963274" lon="-5.240106304213">
        <ele>53.6</ele>
        <time>2026-05-04T13:41:12Z</time>
      </trkpt>
      <trkpt lat="55.640812818095" lon="-5.240011421105">
        <ele>53.6</ele>
        <time>2026-05-04T13:41:13Z</time>
      </trkpt>
      <trkpt lat="55.640873670689" lon="-5.239943779172">
        <ele>53.6</ele>
        <time>2026-05-04T13:41:14Z</time>
      </trkpt>
      <trkpt lat="55.640941899355" lon="-5.239901282939">
        <ele>53.6</ele>
        <time>2026-05-04T13:41:15Z</time>
      </trkpt>
      <trkpt lat="55.641012894048" lon="-5.239873790307">
        <ele>53.8</ele>
        <time>2026-05-04T13:41:16Z</time>
      </trkpt>
      <trkpt lat="55.641084391655" lon="-5.239848979883">
        <ele>53.8</ele>
        <time>2026-05-04T13:41:17Z</time>
      </trkpt>
      <trkpt lat="55.6411560569" lon="-5.239823750364">
        <ele>53.8</ele>
        <time>2026-05-04T13:41:18Z</time>
      </trkpt>
      <trkpt lat="55.641227638326" lon="-5.23979558718">
        <ele>53.8</ele>
        <time>2026-05-04T13:41:19Z</time>
      </trkpt>
      <trkpt lat="55.641299219752" lon="-5.23976457415">
        <ele>53.6</ele>
        <time>2026-05-04T13:41:20Z</time>
      </trkpt>
      <trkpt lat="55.641371052635" lon="-5.239732471473">
        <ele>53.6</ele>
        <time>2026-05-04T13:41:21Z</time>
      </trkpt>
      <trkpt lat="55.641442969337" lon="-5.239699782063">
        <ele>53.6</ele>
        <time>2026-05-04T13:41:22Z</time>
      </trkpt>
      <trkpt lat="55.641514969858" lon="-5.239667008834">
        <ele>53.6</ele>
        <time>2026-05-04T13:41:23Z</time>
      </trkpt>
      <trkpt lat="55.641587054198" lon="-5.239634235605">
        <ele>53.6</ele>
        <time>2026-05-04T13:41:24Z</time>
      </trkpt>
      <trkpt lat="55.6416589709" lon="-5.239601546195">
        <ele>53.8</ele>
        <time>2026-05-04T13:41:25Z</time>
      </trkpt>
      <trkpt lat="55.641730887602" lon="-5.239571622812">
        <ele>53.8</ele>
        <time>2026-05-04T13:41:26Z</time>
      </trkpt>
      <trkpt lat="55.64180313958" lon="-5.239549326958">
        <ele>53.8</ele>
        <time>2026-05-04T13:41:27Z</time>
      </trkpt>
      <trkpt lat="55.641875391558" lon="-5.239535664461">
        <ele>53.8</ele>
        <time>2026-05-04T13:41:28Z</time>
      </trkpt>
      <trkpt lat="55.641947056803" lon="-5.239526779647">
        <ele>53.8</ele>
        <time>2026-05-04T13:41:29Z</time>
      </trkpt>
      <trkpt lat="55.642018051496" lon="-5.239518481566">
        <ele>53.8</ele>
        <time>2026-05-04T13:41:30Z</time>
      </trkpt>
      <trkpt lat="55.642088459456" lon="-5.239513871521">
        <ele>53.8</ele>
        <time>2026-05-04T13:41:31Z</time>
      </trkpt>
      <trkpt lat="55.642157526312" lon="-5.239515966996">
        <ele>53.8</ele>
        <time>2026-05-04T13:41:32Z</time>
      </trkpt>
      <trkpt lat="55.642225168245" lon="-5.239520577041">
        <ele>53.8</ele>
        <time>2026-05-04T13:41:33Z</time>
      </trkpt>
      <trkpt lat="55.642291385255" lon="-5.239525270905">
        <ele>53.8</ele>
        <time>2026-05-04T13:41:34Z</time>
      </trkpt>
      <trkpt lat="55.64235634498" lon="-5.239528958941">
        <ele>53.8</ele>
        <time>2026-05-04T13:41:35Z</time>
      </trkpt>
      <trkpt lat="55.642419963601" lon="-5.239530383864">
        <ele>53.8</ele>
        <time>2026-05-04T13:41:36Z</time>
      </trkpt>
      <trkpt lat="55.642482324937" lon="-5.239530383864">
        <ele>53.8</ele>
        <time>2026-05-04T13:41:37Z</time>
      </trkpt>
      <trkpt lat="55.642543512807" lon="-5.239530300045">
        <ele>53.8</ele>
        <time>2026-05-04T13:41:38Z</time>
      </trkpt>
      <trkpt lat="55.642603443392" lon="-5.239530216226">
        <ele>53.8</ele>
        <time>2026-05-04T13:41:39Z</time>
      </trkpt>
      <trkpt lat="55.642662200511" lon="-5.239530132407">
        <ele>53.8</ele>
        <time>2026-05-04T13:41:40Z</time>
      </trkpt>
      <trkpt lat="55.642719784164" lon="-5.239530048588">
        <ele>53.8</ele>
        <time>2026-05-04T13:41:41Z</time>
      </trkpt>
      <trkpt lat="55.64277627817" lon="-5.239529964769">
        <ele>53.8</ele>
        <time>2026-05-04T13:41:42Z</time>
      </trkpt>
      <trkpt lat="55.642831766348" lon="-5.23952988095">
        <ele>53.8</ele>
        <time>2026-05-04T13:41:43Z</time>
      </trkpt>
      <trkpt lat="55.642886248698" lon="-5.239529797131">
        <ele>53.8</ele>
        <time>2026-05-04T13:41:44Z</time>
      </trkpt>
      <trkpt lat="55.64293972522" lon="-5.239529629493">
        <ele>53.8</ele>
        <time>2026-05-04T13:41:45Z</time>
      </trkpt>
      <trkpt lat="55.642992195914" lon="-5.239529545674">
        <ele>53.8</ele>
        <time>2026-05-04T13:41:46Z</time>
      </trkpt>
      <trkpt lat="55.643043744599" lon="-5.239529461855">
        <ele>53.8</ele>
        <time>2026-05-04T13:41:47Z</time>
      </trkpt>
      <trkpt lat="55.643094287456" lon="-5.239528456027">
        <ele>53.8</ele>
        <time>2026-05-04T13:41:48Z</time>
      </trkpt>
      <trkpt lat="55.643143489209" lon="-5.239526192914">
        <ele>53.8</ele>
        <time>2026-05-04T13:41:49Z</time>
      </trkpt>
      <trkpt lat="55.643187410365" lon="-5.239523929801">
        <ele>53.8</ele>
        <time>2026-05-04T13:41:50Z</time>
      </trkpt>
      <trkpt lat="55.643225212734" lon="-5.239522085783">
        <ele>53.8</ele>
        <time>2026-05-04T13:41:51Z</time>
      </trkpt>
      <trkpt lat="55.643256980135" lon="-5.239522001964">
        <ele>53.8</ele>
        <time>2026-05-04T13:41:52Z</time>
      </trkpt>
      <trkpt lat="55.643282964025" lon="-5.239523845982">
        <ele>53.8</ele>
        <time>2026-05-04T13:41:53Z</time>
      </trkpt>
      <trkpt lat="55.643303248223" lon="-5.23952652819">
        <ele>53.8</ele>
        <time>2026-05-04T13:41:54Z</time>
      </trkpt>
      <trkpt lat="55.643317916548" lon="-5.239529294217">
        <ele>53.8</ele>
        <time>2026-05-04T13:41:55Z</time>
      </trkpt>
      <trkpt lat="55.643327136638" lon="-5.239531389692">
        <ele>53.8</ele>
        <time>2026-05-04T13:41:56Z</time>
      </trkpt>
      <trkpt lat="55.643330992312" lon="-5.23953239552">
        <ele>53.8</ele>
        <time>2026-05-04T13:41:57Z</time>
      </trkpt>
      <trkpt lat="55.64333115995" lon="-5.23953239552">
        <ele>53.8</ele>
        <time>2026-05-04T13:41:58Z</time>
      </trkpt>
      <trkpt lat="55.64333115995" lon="-5.23953239552">
        <ele>53.8</ele>
        <time>2026-05-04T13:41:59Z</time>
      </trkpt>
    </trkseg>
  </trk>
</gpx>